<?xml version="1.0" encoding="UTF-8" standalone="no" ?>
<gpx xmlns="http://www.topografix.com/GPX/1/1" xmlns:xsi="http://www.w3.org/2001/XMLSchema-instance" xsi:schemaLocation="http://www.topografix.com/GPX/1/1 http://www.topografix.com/GPX/1/1/gpx.xsd" version="1.1" creator="VisuGPX - https://www.visugpx.com">
  <metadata>
    <name>Saint Cassien 26062011</name>
    <desc><![CDATA[xc chartreuse plus beau parcours du coin]]></desc>
  </metadata>
  <trk>
    <name><![CDATA[ACTIVE LOG]]></name>
    <trkseg>
      <trkpt lat="45.36111" lon="5.55147">
        <ele>348.615234</ele>
        <time>2011-06-26T07:25:55Z</time>
      </trkpt>
      <trkpt lat="45.36111" lon="5.55147">
        <ele>349.576538</ele>
        <time>2011-06-26T07:26:03Z</time>
      </trkpt>
      <trkpt lat="45.361" lon="5.55138">
        <ele>350.057251</ele>
        <time>2011-06-26T07:26:09Z</time>
      </trkpt>
      <trkpt lat="45.3609" lon="5.5511">
        <ele>351.018433</ele>
        <time>2011-06-26T07:26:14Z</time>
      </trkpt>
      <trkpt lat="45.36083" lon="5.55104">
        <ele>351.499146</ele>
        <time>2011-06-26T07:26:16Z</time>
      </trkpt>
      <trkpt lat="45.36073" lon="5.55074">
        <ele>352.460571</ele>
        <time>2011-06-26T07:26:21Z</time>
      </trkpt>
      <trkpt lat="45.36051" lon="5.55071">
        <ele>353.902588</ele>
        <time>2011-06-26T07:26:27Z</time>
      </trkpt>
      <trkpt lat="45.36047" lon="5.55074">
        <ele>353.902588</ele>
        <time>2011-06-26T07:26:29Z</time>
      </trkpt>
      <trkpt lat="45.3601" lon="5.55106">
        <ele>355.344482</ele>
        <time>2011-06-26T07:26:42Z</time>
      </trkpt>
      <trkpt lat="45.3601" lon="5.55112">
        <ele>354.86377</ele>
        <time>2011-06-26T07:26:50Z</time>
      </trkpt>
      <trkpt lat="45.3601" lon="5.5511">
        <ele>355.825195</ele>
        <time>2011-06-26T07:26:53Z</time>
      </trkpt>
      <trkpt lat="45.36021" lon="5.55099">
        <ele>355.825195</ele>
        <time>2011-06-26T07:26:58Z</time>
      </trkpt>
      <trkpt lat="45.36027" lon="5.55091">
        <ele>355.825195</ele>
        <time>2011-06-26T07:27:00Z</time>
      </trkpt>
      <trkpt lat="45.3606" lon="5.55082">
        <ele>356.786377</ele>
        <time>2011-06-26T07:27:07Z</time>
      </trkpt>
      <trkpt lat="45.36066" lon="5.55095">
        <ele>357.26709</ele>
        <time>2011-06-26T07:27:09Z</time>
      </trkpt>
      <trkpt lat="45.36073" lon="5.55112">
        <ele>357.747803</ele>
        <time>2011-06-26T07:27:12Z</time>
      </trkpt>
      <trkpt lat="45.3609" lon="5.55108">
        <ele>358.708984</ele>
        <time>2011-06-26T07:27:17Z</time>
      </trkpt>
      <trkpt lat="45.36098" lon="5.55116">
        <ele>359.189697</ele>
        <time>2011-06-26T07:27:20Z</time>
      </trkpt>
      <trkpt lat="45.36105" lon="5.55129">
        <ele>360.151123</ele>
        <time>2011-06-26T07:27:23Z</time>
      </trkpt>
      <trkpt lat="45.36128" lon="5.55108">
        <ele>360.631714</ele>
        <time>2011-06-26T07:27:31Z</time>
      </trkpt>
      <trkpt lat="45.3613" lon="5.55097">
        <ele>360.631714</ele>
        <time>2011-06-26T07:27:33Z</time>
      </trkpt>
      <trkpt lat="45.3615" lon="5.55071">
        <ele>361.59314</ele>
        <time>2011-06-26T07:27:39Z</time>
      </trkpt>
      <trkpt lat="45.36158" lon="5.55067">
        <ele>362.07373</ele>
        <time>2011-06-26T07:27:41Z</time>
      </trkpt>
      <trkpt lat="45.36171" lon="5.55054">
        <ele>362.554321</ele>
        <time>2011-06-26T07:27:45Z</time>
      </trkpt>
      <trkpt lat="45.36225" lon="5.55125">
        <ele>362.554321</ele>
        <time>2011-06-26T07:28:00Z</time>
      </trkpt>
      <trkpt lat="45.36343" lon="5.55262">
        <ele>362.554321</ele>
        <time>2011-06-26T07:28:32Z</time>
      </trkpt>
      <trkpt lat="45.36345" lon="5.55275">
        <ele>362.07373</ele>
        <time>2011-06-26T07:28:34Z</time>
      </trkpt>
      <trkpt lat="45.36362" lon="5.5534">
        <ele>362.554321</ele>
        <time>2011-06-26T07:28:45Z</time>
      </trkpt>
      <trkpt lat="45.36377" lon="5.55344">
        <ele>362.554321</ele>
        <time>2011-06-26T07:28:49Z</time>
      </trkpt>
      <trkpt lat="45.36476" lon="5.55327">
        <ele>365.438354</ele>
        <time>2011-06-26T07:29:10Z</time>
      </trkpt>
      <trkpt lat="45.36583" lon="5.55316">
        <ele>363.996338</ele>
        <time>2011-06-26T07:29:31Z</time>
      </trkpt>
      <trkpt lat="45.3662" lon="5.5531">
        <ele>363.996338</ele>
        <time>2011-06-26T07:29:38Z</time>
      </trkpt>
      <trkpt lat="45.36628" lon="5.55329">
        <ele>363.515747</ele>
        <time>2011-06-26T07:29:42Z</time>
      </trkpt>
      <trkpt lat="45.36635" lon="5.55498">
        <ele>365.918945</ele>
        <time>2011-06-26T07:30:07Z</time>
      </trkpt>
      <trkpt lat="45.36645" lon="5.55629">
        <ele>369.283691</ele>
        <time>2011-06-26T07:30:27Z</time>
      </trkpt>
      <trkpt lat="45.36656" lon="5.55692">
        <ele>370.244873</ele>
        <time>2011-06-26T07:30:37Z</time>
      </trkpt>
      <trkpt lat="45.36658" lon="5.55702">
        <ele>370.725586</ele>
        <time>2011-06-26T07:30:39Z</time>
      </trkpt>
      <trkpt lat="45.3668" lon="5.55726">
        <ele>370.725586</ele>
        <time>2011-06-26T07:30:46Z</time>
      </trkpt>
      <trkpt lat="45.36697" lon="5.55728">
        <ele>371.206299</ele>
        <time>2011-06-26T07:30:53Z</time>
      </trkpt>
      <trkpt lat="45.36731" lon="5.55717">
        <ele>374.570801</ele>
        <time>2011-06-26T07:31:06Z</time>
      </trkpt>
      <trkpt lat="45.36744" lon="5.55756">
        <ele>376.012817</ele>
        <time>2011-06-26T07:31:21Z</time>
      </trkpt>
      <trkpt lat="45.36748" lon="5.55801">
        <ele>378.896851</ele>
        <time>2011-06-26T07:31:37Z</time>
      </trkpt>
      <trkpt lat="45.3677" lon="5.5584">
        <ele>382.261353</ele>
        <time>2011-06-26T07:31:53Z</time>
      </trkpt>
      <trkpt lat="45.36804" lon="5.55872">
        <ele>382.742065</ele>
        <time>2011-06-26T07:32:14Z</time>
      </trkpt>
      <trkpt lat="45.3683" lon="5.559">
        <ele>383.703247</ele>
        <time>2011-06-26T07:32:31Z</time>
      </trkpt>
      <trkpt lat="45.36888" lon="5.5597">
        <ele>392.835938</ele>
        <time>2011-06-26T07:32:55Z</time>
      </trkpt>
      <trkpt lat="45.36909" lon="5.5602">
        <ele>399.084351</ele>
        <time>2011-06-26T07:33:13Z</time>
      </trkpt>
      <trkpt lat="45.36922" lon="5.56084">
        <ele>403.891113</ele>
        <time>2011-06-26T07:33:33Z</time>
      </trkpt>
      <trkpt lat="45.36931" lon="5.56146">
        <ele>406.774902</ele>
        <time>2011-06-26T07:33:50Z</time>
      </trkpt>
      <trkpt lat="45.36952" lon="5.56215">
        <ele>405.813721</ele>
        <time>2011-06-26T07:34:04Z</time>
      </trkpt>
      <trkpt lat="45.36991" lon="5.5632">
        <ele>406.774902</ele>
        <time>2011-06-26T07:34:24Z</time>
      </trkpt>
      <trkpt lat="45.37038" lon="5.564">
        <ele>407.736328</ele>
        <time>2011-06-26T07:34:42Z</time>
      </trkpt>
      <trkpt lat="45.37079" lon="5.56488">
        <ele>408.217041</ele>
        <time>2011-06-26T07:35:01Z</time>
      </trkpt>
      <trkpt lat="45.37081" lon="5.56492">
        <ele>408.217041</ele>
        <time>2011-06-26T07:35:02Z</time>
      </trkpt>
      <trkpt lat="45.37133" lon="5.56558">
        <ele>407.255615</ele>
        <time>2011-06-26T07:35:18Z</time>
      </trkpt>
      <trkpt lat="45.37175" lon="5.56651">
        <ele>405.813721</ele>
        <time>2011-06-26T07:35:38Z</time>
      </trkpt>
      <trkpt lat="45.37206" lon="5.56726">
        <ele>403.4104</ele>
        <time>2011-06-26T07:35:50Z</time>
      </trkpt>
      <trkpt lat="45.37248" lon="5.56829">
        <ele>399.565063</ele>
        <time>2011-06-26T07:36:02Z</time>
      </trkpt>
      <trkpt lat="45.37289" lon="5.56906">
        <ele>394.758545</ele>
        <time>2011-06-26T07:36:10Z</time>
      </trkpt>
      <trkpt lat="45.373" lon="5.56938">
        <ele>394.277954</ele>
        <time>2011-06-26T07:36:13Z</time>
      </trkpt>
      <trkpt lat="45.37328" lon="5.56945">
        <ele>393.797241</ele>
        <time>2011-06-26T07:36:18Z</time>
      </trkpt>
      <trkpt lat="45.37399" lon="5.569">
        <ele>397.642456</ele>
        <time>2011-06-26T07:36:39Z</time>
      </trkpt>
      <trkpt lat="45.37437" lon="5.5688">
        <ele>399.565063</ele>
        <time>2011-06-26T07:36:52Z</time>
      </trkpt>
      <trkpt lat="45.37442" lon="5.56842">
        <ele>400.045898</ele>
        <time>2011-06-26T07:37:03Z</time>
      </trkpt>
      <trkpt lat="45.37465" lon="5.56792">
        <ele>398.60376</ele>
        <time>2011-06-26T07:37:21Z</time>
      </trkpt>
      <trkpt lat="45.37467" lon="5.56749">
        <ele>401.487793</ele>
        <time>2011-06-26T07:37:40Z</time>
      </trkpt>
      <trkpt lat="45.37422" lon="5.56681">
        <ele>404.852295</ele>
        <time>2011-06-26T07:38:07Z</time>
      </trkpt>
      <trkpt lat="45.37375" lon="5.56634">
        <ele>411.100952</ele>
        <time>2011-06-26T07:38:29Z</time>
      </trkpt>
      <trkpt lat="45.37339" lon="5.56578">
        <ele>412.062256</ele>
        <time>2011-06-26T07:38:53Z</time>
      </trkpt>
      <trkpt lat="45.37373" lon="5.56518">
        <ele>414.465454</ele>
        <time>2011-06-26T07:39:07Z</time>
      </trkpt>
      <trkpt lat="45.37386" lon="5.56481">
        <ele>414.946167</ele>
        <time>2011-06-26T07:39:14Z</time>
      </trkpt>
      <trkpt lat="45.3739" lon="5.5646">
        <ele>414.946167</ele>
        <time>2011-06-26T07:39:16Z</time>
      </trkpt>
      <trkpt lat="45.37401" lon="5.5638">
        <ele>413.504272</ele>
        <time>2011-06-26T07:39:20Z</time>
      </trkpt>
      <trkpt lat="45.37377" lon="5.56267">
        <ele>410.620239</ele>
        <time>2011-06-26T07:39:32Z</time>
      </trkpt>
      <trkpt lat="45.37379" lon="5.56249">
        <ele>410.139648</ele>
        <time>2011-06-26T07:39:34Z</time>
      </trkpt>
      <trkpt lat="45.37371" lon="5.56234">
        <ele>409.659058</ele>
        <time>2011-06-26T07:39:39Z</time>
      </trkpt>
      <trkpt lat="45.37315" lon="5.56226">
        <ele>408.697632</ele>
        <time>2011-06-26T07:39:54Z</time>
      </trkpt>
      <trkpt lat="45.37221" lon="5.56146">
        <ele>409.659058</ele>
        <time>2011-06-26T07:40:18Z</time>
      </trkpt>
      <trkpt lat="45.37188" lon="5.56095">
        <ele>409.178345</ele>
        <time>2011-06-26T07:40:27Z</time>
      </trkpt>
      <trkpt lat="45.37182" lon="5.56093">
        <ele>408.217041</ele>
        <time>2011-06-26T07:40:29Z</time>
      </trkpt>
      <trkpt lat="45.37193" lon="5.56071">
        <ele>409.659058</ele>
        <time>2011-06-26T07:40:35Z</time>
      </trkpt>
      <trkpt lat="45.37225" lon="5.56016">
        <ele>409.659058</ele>
        <time>2011-06-26T07:40:45Z</time>
      </trkpt>
      <trkpt lat="45.37248" lon="5.55977">
        <ele>405.333008</ele>
        <time>2011-06-26T07:40:56Z</time>
      </trkpt>
      <trkpt lat="45.37238" lon="5.55958">
        <ele>404.852295</ele>
        <time>2011-06-26T07:41:02Z</time>
      </trkpt>
      <trkpt lat="45.37236" lon="5.55904">
        <ele>404.852295</ele>
        <time>2011-06-26T07:41:14Z</time>
      </trkpt>
      <trkpt lat="45.37223" lon="5.55889">
        <ele>404.852295</ele>
        <time>2011-06-26T07:41:18Z</time>
      </trkpt>
      <trkpt lat="45.37231" lon="5.55825">
        <ele>404.852295</ele>
        <time>2011-06-26T07:41:29Z</time>
      </trkpt>
      <trkpt lat="45.37227" lon="5.55784">
        <ele>404.371704</ele>
        <time>2011-06-26T07:41:40Z</time>
      </trkpt>
      <trkpt lat="45.37248" lon="5.55664">
        <ele>404.371704</ele>
        <time>2011-06-26T07:42:06Z</time>
      </trkpt>
      <trkpt lat="45.37251" lon="5.55625">
        <ele>404.371704</ele>
        <time>2011-06-26T07:42:15Z</time>
      </trkpt>
      <trkpt lat="45.3715" lon="5.55558">
        <ele>404.371704</ele>
        <time>2011-06-26T07:42:27Z</time>
      </trkpt>
      <trkpt lat="45.37139" lon="5.55468">
        <ele>401.00708</ele>
        <time>2011-06-26T07:42:46Z</time>
      </trkpt>
      <trkpt lat="45.37139" lon="5.55464">
        <ele>400.045898</ele>
        <time>2011-06-26T07:42:48Z</time>
      </trkpt>
      <trkpt lat="45.3715" lon="5.55464">
        <ele>397.161743</ele>
        <time>2011-06-26T07:42:55Z</time>
      </trkpt>
      <trkpt lat="45.37188" lon="5.55477">
        <ele>398.123169</ele>
        <time>2011-06-26T07:43:18Z</time>
      </trkpt>
      <trkpt lat="45.37225" lon="5.55498">
        <ele>401.487793</ele>
        <time>2011-06-26T07:43:43Z</time>
      </trkpt>
      <trkpt lat="45.37259" lon="5.55516">
        <ele>400.526489</ele>
        <time>2011-06-26T07:44:01Z</time>
      </trkpt>
      <trkpt lat="45.37291" lon="5.55526">
        <ele>400.045898</ele>
        <time>2011-06-26T07:44:17Z</time>
      </trkpt>
      <trkpt lat="45.37293" lon="5.55473">
        <ele>401.00708</ele>
        <time>2011-06-26T07:44:33Z</time>
      </trkpt>
      <trkpt lat="45.37281" lon="5.55376">
        <ele>403.4104</ele>
        <time>2011-06-26T07:44:54Z</time>
      </trkpt>
      <trkpt lat="45.37253" lon="5.55269">
        <ele>401.968506</ele>
        <time>2011-06-26T07:45:12Z</time>
      </trkpt>
      <trkpt lat="45.37231" lon="5.5514">
        <ele>398.60376</ele>
        <time>2011-06-26T07:45:30Z</time>
      </trkpt>
      <trkpt lat="45.37227" lon="5.55121">
        <ele>398.60376</ele>
        <time>2011-06-26T07:45:33Z</time>
      </trkpt>
      <trkpt lat="45.37195" lon="5.55033">
        <ele>397.642456</ele>
        <time>2011-06-26T07:45:49Z</time>
      </trkpt>
      <trkpt lat="45.37178" lon="5.54964">
        <ele>395.719849</ele>
        <time>2011-06-26T07:46:00Z</time>
      </trkpt>
      <trkpt lat="45.37173" lon="5.54938">
        <ele>395.719849</ele>
        <time>2011-06-26T07:46:04Z</time>
      </trkpt>
      <trkpt lat="45.37156" lon="5.5484">
        <ele>396.200562</ele>
        <time>2011-06-26T07:46:20Z</time>
      </trkpt>
      <trkpt lat="45.37156" lon="5.54829">
        <ele>396.200562</ele>
        <time>2011-06-26T07:46:22Z</time>
      </trkpt>
      <trkpt lat="45.37143" lon="5.5479">
        <ele>395.719849</ele>
        <time>2011-06-26T07:46:29Z</time>
      </trkpt>
      <trkpt lat="45.37141" lon="5.54711">
        <ele>396.200562</ele>
        <time>2011-06-26T07:46:43Z</time>
      </trkpt>
      <trkpt lat="45.3716" lon="5.54599">
        <ele>399.084351</ele>
        <time>2011-06-26T07:47:04Z</time>
      </trkpt>
      <trkpt lat="45.37178" lon="5.54544">
        <ele>400.526489</ele>
        <time>2011-06-26T07:47:15Z</time>
      </trkpt>
      <trkpt lat="45.37195" lon="5.54464">
        <ele>401.00708</ele>
        <time>2011-06-26T07:47:28Z</time>
      </trkpt>
      <trkpt lat="45.37221" lon="5.54393">
        <ele>401.487793</ele>
        <time>2011-06-26T07:47:39Z</time>
      </trkpt>
      <trkpt lat="45.37225" lon="5.5438">
        <ele>401.487793</ele>
        <time>2011-06-26T07:47:41Z</time>
      </trkpt>
      <trkpt lat="45.37272" lon="5.54262">
        <ele>399.084351</ele>
        <time>2011-06-26T07:47:59Z</time>
      </trkpt>
      <trkpt lat="45.37274" lon="5.54256">
        <ele>399.084351</ele>
        <time>2011-06-26T07:48:00Z</time>
      </trkpt>
      <trkpt lat="45.37341" lon="5.54211">
        <ele>397.642456</ele>
        <time>2011-06-26T07:48:13Z</time>
      </trkpt>
      <trkpt lat="45.3736" lon="5.54196">
        <ele>396.681152</ele>
        <time>2011-06-26T07:48:17Z</time>
      </trkpt>
      <trkpt lat="45.37358" lon="5.54132">
        <ele>395.719849</ele>
        <time>2011-06-26T07:48:27Z</time>
      </trkpt>
      <trkpt lat="45.37354" lon="5.54117">
        <ele>396.200562</ele>
        <time>2011-06-26T07:48:29Z</time>
      </trkpt>
      <trkpt lat="45.37339" lon="5.53986">
        <ele>396.681152</ele>
        <time>2011-06-26T07:48:47Z</time>
      </trkpt>
      <trkpt lat="45.373" lon="5.53846">
        <ele>396.681152</ele>
        <time>2011-06-26T07:49:07Z</time>
      </trkpt>
      <trkpt lat="45.37272" lon="5.53739">
        <ele>395.239136</ele>
        <time>2011-06-26T07:49:24Z</time>
      </trkpt>
      <trkpt lat="45.37238" lon="5.53655">
        <ele>396.200562</ele>
        <time>2011-06-26T07:49:38Z</time>
      </trkpt>
      <trkpt lat="45.37158" lon="5.53572">
        <ele>394.758545</ele>
        <time>2011-06-26T07:49:57Z</time>
      </trkpt>
      <trkpt lat="45.37045" lon="5.53481">
        <ele>393.797241</ele>
        <time>2011-06-26T07:50:16Z</time>
      </trkpt>
      <trkpt lat="45.36959" lon="5.53408">
        <ele>386.106689</ele>
        <time>2011-06-26T07:50:30Z</time>
      </trkpt>
      <trkpt lat="45.36929" lon="5.53423">
        <ele>381.300049</ele>
        <time>2011-06-26T07:50:35Z</time>
      </trkpt>
      <trkpt lat="45.36901" lon="5.5343">
        <ele>378.896851</ele>
        <time>2011-06-26T07:50:39Z</time>
      </trkpt>
      <trkpt lat="45.36881" lon="5.53445">
        <ele>377.454834</ele>
        <time>2011-06-26T07:50:43Z</time>
      </trkpt>
      <trkpt lat="45.36866" lon="5.53453">
        <ele>375.532104</ele>
        <time>2011-06-26T07:50:50Z</time>
      </trkpt>
      <trkpt lat="45.36866" lon="5.53458">
        <ele>375.051514</ele>
        <time>2011-06-26T07:50:55Z</time>
      </trkpt>
      <trkpt lat="45.36862" lon="5.53469">
        <ele>375.051514</ele>
        <time>2011-06-26T07:51:12Z</time>
      </trkpt>
      <trkpt lat="45.36858" lon="5.53475">
        <ele>370.244873</ele>
        <time>2011-06-26T07:53:34Z</time>
      </trkpt>
      <trkpt lat="45.36843" lon="5.53471">
        <ele>370.725586</ele>
        <time>2011-06-26T07:53:43Z</time>
      </trkpt>
      <trkpt lat="45.36826" lon="5.53451">
        <ele>370.725586</ele>
        <time>2011-06-26T07:53:55Z</time>
      </trkpt>
      <trkpt lat="45.36826" lon="5.53449">
        <ele>370.725586</ele>
        <time>2011-06-26T07:53:56Z</time>
      </trkpt>
      <trkpt lat="45.36815" lon="5.53456">
        <ele>370.725586</ele>
        <time>2011-06-26T07:54:03Z</time>
      </trkpt>
      <trkpt lat="45.36813" lon="5.53544">
        <ele>373.128906</ele>
        <time>2011-06-26T07:54:24Z</time>
      </trkpt>
      <trkpt lat="45.36813" lon="5.53681">
        <ele>373.128906</ele>
        <time>2011-06-26T07:54:52Z</time>
      </trkpt>
      <trkpt lat="45.36826" lon="5.53773">
        <ele>373.128906</ele>
        <time>2011-06-26T07:55:05Z</time>
      </trkpt>
      <trkpt lat="45.36815" lon="5.53784">
        <ele>373.128906</ele>
        <time>2011-06-26T07:55:11Z</time>
      </trkpt>
      <trkpt lat="45.36772" lon="5.53878">
        <ele>373.609497</ele>
        <time>2011-06-26T07:55:32Z</time>
      </trkpt>
      <trkpt lat="45.36746" lon="5.53876">
        <ele>374.090088</ele>
        <time>2011-06-26T07:55:53Z</time>
      </trkpt>
      <trkpt lat="45.3674" lon="5.53878">
        <ele>375.051514</ele>
        <time>2011-06-26T07:56:01Z</time>
      </trkpt>
      <trkpt lat="45.36723" lon="5.53855">
        <ele>376.974243</ele>
        <time>2011-06-26T07:56:21Z</time>
      </trkpt>
      <trkpt lat="45.36721" lon="5.53857">
        <ele>379.377441</ele>
        <time>2011-06-26T07:56:26Z</time>
      </trkpt>
      <trkpt lat="45.3671" lon="5.53853">
        <ele>382.742065</ele>
        <time>2011-06-26T07:56:34Z</time>
      </trkpt>
      <trkpt lat="45.36686" lon="5.53827">
        <ele>387.548584</ele>
        <time>2011-06-26T07:56:53Z</time>
      </trkpt>
      <trkpt lat="45.36658" lon="5.5381">
        <ele>392.355347</ele>
        <time>2011-06-26T07:57:08Z</time>
      </trkpt>
      <trkpt lat="45.36628" lon="5.53853">
        <ele>393.316528</ele>
        <time>2011-06-26T07:57:26Z</time>
      </trkpt>
      <trkpt lat="45.36596" lon="5.53936">
        <ele>392.835938</ele>
        <time>2011-06-26T07:57:47Z</time>
      </trkpt>
      <trkpt lat="45.36549" lon="5.54001">
        <ele>393.797241</ele>
        <time>2011-06-26T07:58:08Z</time>
      </trkpt>
      <trkpt lat="45.36542" lon="5.54009">
        <ele>394.758545</ele>
        <time>2011-06-26T07:58:11Z</time>
      </trkpt>
      <trkpt lat="45.36532" lon="5.54003">
        <ele>395.719849</ele>
        <time>2011-06-26T07:58:16Z</time>
      </trkpt>
      <trkpt lat="45.36504" lon="5.53968">
        <ele>394.277954</ele>
        <time>2011-06-26T07:58:31Z</time>
      </trkpt>
      <trkpt lat="45.36536" lon="5.53902">
        <ele>397.161743</ele>
        <time>2011-06-26T07:58:51Z</time>
      </trkpt>
      <trkpt lat="45.36568" lon="5.53825">
        <ele>397.642456</ele>
        <time>2011-06-26T07:59:10Z</time>
      </trkpt>
      <trkpt lat="45.36598" lon="5.53711">
        <ele>400.526489</ele>
        <time>2011-06-26T07:59:33Z</time>
      </trkpt>
      <trkpt lat="45.36609" lon="5.53589">
        <ele>403.4104</ele>
        <time>2011-06-26T07:59:54Z</time>
      </trkpt>
      <trkpt lat="45.36611" lon="5.53584">
        <ele>403.4104</ele>
        <time>2011-06-26T07:59:55Z</time>
      </trkpt>
      <trkpt lat="45.36579" lon="5.53561">
        <ele>404.852295</ele>
        <time>2011-06-26T08:00:08Z</time>
      </trkpt>
      <trkpt lat="45.36523" lon="5.53535">
        <ele>408.697632</ele>
        <time>2011-06-26T08:00:29Z</time>
      </trkpt>
      <trkpt lat="45.36461" lon="5.53499">
        <ele>408.697632</ele>
        <time>2011-06-26T08:00:53Z</time>
      </trkpt>
      <trkpt lat="45.3642" lon="5.53509">
        <ele>410.139648</ele>
        <time>2011-06-26T08:01:08Z</time>
      </trkpt>
      <trkpt lat="45.36364" lon="5.53556">
        <ele>412.062256</ele>
        <time>2011-06-26T08:01:28Z</time>
      </trkpt>
      <trkpt lat="45.36324" lon="5.53546">
        <ele>412.542847</ele>
        <time>2011-06-26T08:01:42Z</time>
      </trkpt>
      <trkpt lat="45.363" lon="5.53541">
        <ele>411.581665</ele>
        <time>2011-06-26T08:01:50Z</time>
      </trkpt>
      <trkpt lat="45.36283" lon="5.5355">
        <ele>412.542847</ele>
        <time>2011-06-26T08:01:54Z</time>
      </trkpt>
      <trkpt lat="45.3627" lon="5.53559">
        <ele>412.542847</ele>
        <time>2011-06-26T08:01:57Z</time>
      </trkpt>
      <trkpt lat="45.36218" lon="5.53565">
        <ele>413.984863</ele>
        <time>2011-06-26T08:02:07Z</time>
      </trkpt>
      <trkpt lat="45.36171" lon="5.53604">
        <ele>414.946167</ele>
        <time>2011-06-26T08:02:19Z</time>
      </trkpt>
      <trkpt lat="45.36139" lon="5.53651">
        <ele>415.42688</ele>
        <time>2011-06-26T08:02:28Z</time>
      </trkpt>
      <trkpt lat="45.36133" lon="5.53662">
        <ele>415.42688</ele>
        <time>2011-06-26T08:02:30Z</time>
      </trkpt>
      <trkpt lat="45.3612" lon="5.53659">
        <ele>413.984863</ele>
        <time>2011-06-26T08:02:33Z</time>
      </trkpt>
      <trkpt lat="45.36094" lon="5.53647">
        <ele>414.465454</ele>
        <time>2011-06-26T08:02:39Z</time>
      </trkpt>
      <trkpt lat="45.36015" lon="5.53561">
        <ele>414.465454</ele>
        <time>2011-06-26T08:02:57Z</time>
      </trkpt>
      <trkpt lat="45.3595" lon="5.53451">
        <ele>414.946167</ele>
        <time>2011-06-26T08:03:17Z</time>
      </trkpt>
      <trkpt lat="45.35946" lon="5.53419">
        <ele>413.984863</ele>
        <time>2011-06-26T08:03:21Z</time>
      </trkpt>
      <trkpt lat="45.35944" lon="5.53278">
        <ele>412.062256</ele>
        <time>2011-06-26T08:03:41Z</time>
      </trkpt>
      <trkpt lat="45.35933" lon="5.53273">
        <ele>411.581665</ele>
        <time>2011-06-26T08:03:45Z</time>
      </trkpt>
      <trkpt lat="45.3586" lon="5.5331">
        <ele>411.100952</ele>
        <time>2011-06-26T08:04:01Z</time>
      </trkpt>
      <trkpt lat="45.35774" lon="5.53344">
        <ele>410.139648</ele>
        <time>2011-06-26T08:04:17Z</time>
      </trkpt>
      <trkpt lat="45.35703" lon="5.53383">
        <ele>409.178345</ele>
        <time>2011-06-26T08:04:28Z</time>
      </trkpt>
      <trkpt lat="45.35622" lon="5.53469">
        <ele>406.294312</ele>
        <time>2011-06-26T08:04:41Z</time>
      </trkpt>
      <trkpt lat="45.35577" lon="5.5352">
        <ele>402.929688</ele>
        <time>2011-06-26T08:04:49Z</time>
      </trkpt>
      <trkpt lat="45.3548" lon="5.53565">
        <ele>397.642456</ele>
        <time>2011-06-26T08:05:03Z</time>
      </trkpt>
      <trkpt lat="45.35465" lon="5.53576">
        <ele>396.200562</ele>
        <time>2011-06-26T08:05:06Z</time>
      </trkpt>
      <trkpt lat="45.35455" lon="5.53584">
        <ele>395.719849</ele>
        <time>2011-06-26T08:05:08Z</time>
      </trkpt>
      <trkpt lat="45.35382" lon="5.53625">
        <ele>389.951904</ele>
        <time>2011-06-26T08:05:20Z</time>
      </trkpt>
      <trkpt lat="45.35364" lon="5.53662">
        <ele>387.548584</ele>
        <time>2011-06-26T08:05:24Z</time>
      </trkpt>
      <trkpt lat="45.35315" lon="5.53801">
        <ele>381.300049</ele>
        <time>2011-06-26T08:05:40Z</time>
      </trkpt>
      <trkpt lat="45.35313" lon="5.53805">
        <ele>381.300049</ele>
        <time>2011-06-26T08:05:41Z</time>
      </trkpt>
      <trkpt lat="45.35302" lon="5.53818">
        <ele>381.300049</ele>
        <time>2011-06-26T08:05:44Z</time>
      </trkpt>
      <trkpt lat="45.353" lon="5.53846">
        <ele>380.338745</ele>
        <time>2011-06-26T08:05:48Z</time>
      </trkpt>
      <trkpt lat="45.35302" lon="5.53861">
        <ele>380.338745</ele>
        <time>2011-06-26T08:05:50Z</time>
      </trkpt>
      <trkpt lat="45.35294" lon="5.53911">
        <ele>378.896851</ele>
        <time>2011-06-26T08:05:57Z</time>
      </trkpt>
      <trkpt lat="45.35291" lon="5.53932">
        <ele>378.416138</ele>
        <time>2011-06-26T08:06:00Z</time>
      </trkpt>
      <trkpt lat="45.35276" lon="5.53923">
        <ele>377.935425</ele>
        <time>2011-06-26T08:06:05Z</time>
      </trkpt>
      <trkpt lat="45.35274" lon="5.53919">
        <ele>377.454834</ele>
        <time>2011-06-26T08:06:06Z</time>
      </trkpt>
      <trkpt lat="45.35249" lon="5.53908">
        <ele>378.416138</ele>
        <time>2011-06-26T08:06:13Z</time>
      </trkpt>
      <trkpt lat="45.35244" lon="5.53915">
        <ele>377.454834</ele>
        <time>2011-06-26T08:06:14Z</time>
      </trkpt>
      <trkpt lat="45.35188" lon="5.54031">
        <ele>372.648193</ele>
        <time>2011-06-26T08:06:28Z</time>
      </trkpt>
      <trkpt lat="45.35176" lon="5.54056">
        <ele>371.68689</ele>
        <time>2011-06-26T08:06:32Z</time>
      </trkpt>
      <trkpt lat="45.35161" lon="5.54082">
        <ele>371.206299</ele>
        <time>2011-06-26T08:06:36Z</time>
      </trkpt>
      <trkpt lat="45.35088" lon="5.54217">
        <ele>363.035034</ele>
        <time>2011-06-26T08:06:53Z</time>
      </trkpt>
      <trkpt lat="45.35038" lon="5.54325">
        <ele>359.189697</ele>
        <time>2011-06-26T08:07:06Z</time>
      </trkpt>
      <trkpt lat="45.35013" lon="5.54385">
        <ele>358.228394</ele>
        <time>2011-06-26T08:07:14Z</time>
      </trkpt>
      <trkpt lat="45.35006" lon="5.54406">
        <ele>357.747803</ele>
        <time>2011-06-26T08:07:17Z</time>
      </trkpt>
      <trkpt lat="45.34948" lon="5.54546">
        <ele>357.747803</ele>
        <time>2011-06-26T08:07:38Z</time>
      </trkpt>
      <trkpt lat="45.3494" lon="5.54563">
        <ele>357.747803</ele>
        <time>2011-06-26T08:07:41Z</time>
      </trkpt>
      <trkpt lat="45.34873" lon="5.54745">
        <ele>353.902588</ele>
        <time>2011-06-26T08:08:05Z</time>
      </trkpt>
      <trkpt lat="45.34834" lon="5.5487">
        <ele>352.460571</ele>
        <time>2011-06-26T08:08:22Z</time>
      </trkpt>
      <trkpt lat="45.34815" lon="5.54874">
        <ele>352.460571</ele>
        <time>2011-06-26T08:08:27Z</time>
      </trkpt>
      <trkpt lat="45.34734" lon="5.54807">
        <ele>350.057251</ele>
        <time>2011-06-26T08:08:44Z</time>
      </trkpt>
      <trkpt lat="45.34665" lon="5.54683">
        <ele>350.537842</ele>
        <time>2011-06-26T08:08:59Z</time>
      </trkpt>
      <trkpt lat="45.34661" lon="5.54679">
        <ele>350.537842</ele>
        <time>2011-06-26T08:09:01Z</time>
      </trkpt>
      <trkpt lat="45.34654" lon="5.54702">
        <ele>350.057251</ele>
        <time>2011-06-26T08:09:05Z</time>
      </trkpt>
      <trkpt lat="45.3465" lon="5.54717">
        <ele>348.615234</ele>
        <time>2011-06-26T08:09:07Z</time>
      </trkpt>
      <trkpt lat="45.34639" lon="5.54724">
        <ele>345.731323</ele>
        <time>2011-06-26T08:09:11Z</time>
      </trkpt>
      <trkpt lat="45.34628" lon="5.54711">
        <ele>345.25061</ele>
        <time>2011-06-26T08:09:14Z</time>
      </trkpt>
      <trkpt lat="45.34624" lon="5.54694">
        <ele>343.327881</ele>
        <time>2011-06-26T08:09:17Z</time>
      </trkpt>
      <trkpt lat="45.34609" lon="5.54683">
        <ele>339.002075</ele>
        <time>2011-06-26T08:09:22Z</time>
      </trkpt>
      <trkpt lat="45.34598" lon="5.54692">
        <ele>338.040771</ele>
        <time>2011-06-26T08:09:24Z</time>
      </trkpt>
      <trkpt lat="45.34573" lon="5.54715">
        <ele>334.195435</ele>
        <time>2011-06-26T08:09:29Z</time>
      </trkpt>
      <trkpt lat="45.3456" lon="5.54724">
        <ele>333.714722</ele>
        <time>2011-06-26T08:09:31Z</time>
      </trkpt>
      <trkpt lat="45.34502" lon="5.5478">
        <ele>327.946777</ele>
        <time>2011-06-26T08:09:43Z</time>
      </trkpt>
      <trkpt lat="45.34502" lon="5.54756">
        <ele>327.466187</ele>
        <time>2011-06-26T08:09:50Z</time>
      </trkpt>
      <trkpt lat="45.34491" lon="5.54735">
        <ele>326.504883</ele>
        <time>2011-06-26T08:09:54Z</time>
      </trkpt>
      <trkpt lat="45.34483" lon="5.54717">
        <ele>327.466187</ele>
        <time>2011-06-26T08:09:57Z</time>
      </trkpt>
      <trkpt lat="45.34442" lon="5.54666">
        <ele>326.504883</ele>
        <time>2011-06-26T08:10:08Z</time>
      </trkpt>
      <trkpt lat="45.3433" lon="5.54559">
        <ele>324.582275</ele>
        <time>2011-06-26T08:10:39Z</time>
      </trkpt>
      <trkpt lat="45.34296" lon="5.54505">
        <ele>311.604492</ele>
        <time>2011-06-26T08:11:03Z</time>
      </trkpt>
      <trkpt lat="45.34253" lon="5.54402">
        <ele>312.565796</ele>
        <time>2011-06-26T08:11:26Z</time>
      </trkpt>
      <trkpt lat="45.34189" lon="5.54308">
        <ele>313.046509</ele>
        <time>2011-06-26T08:11:48Z</time>
      </trkpt>
      <trkpt lat="45.34167" lon="5.54275">
        <ele>313.046509</ele>
        <time>2011-06-26T08:11:55Z</time>
      </trkpt>
      <trkpt lat="45.34159" lon="5.54232">
        <ele>312.565796</ele>
        <time>2011-06-26T08:12:00Z</time>
      </trkpt>
      <trkpt lat="45.34159" lon="5.54211">
        <ele>313.046509</ele>
        <time>2011-06-26T08:12:03Z</time>
      </trkpt>
      <trkpt lat="45.3418" lon="5.54192">
        <ele>311.604492</ele>
        <time>2011-06-26T08:12:09Z</time>
      </trkpt>
      <trkpt lat="45.34206" lon="5.54117">
        <ele>313.046509</ele>
        <time>2011-06-26T08:12:29Z</time>
      </trkpt>
      <trkpt lat="45.34214" lon="5.54069">
        <ele>314.488403</ele>
        <time>2011-06-26T08:12:42Z</time>
      </trkpt>
      <trkpt lat="45.34201" lon="5.54067">
        <ele>313.527222</ele>
        <time>2011-06-26T08:12:46Z</time>
      </trkpt>
      <trkpt lat="45.34124" lon="5.54093">
        <ele>309.201172</ele>
        <time>2011-06-26T08:12:59Z</time>
      </trkpt>
      <trkpt lat="45.34017" lon="5.54095">
        <ele>307.278564</ele>
        <time>2011-06-26T08:13:12Z</time>
      </trkpt>
      <trkpt lat="45.33989" lon="5.54097">
        <ele>306.317261</ele>
        <time>2011-06-26T08:13:16Z</time>
      </trkpt>
      <trkpt lat="45.33944" lon="5.54136">
        <ele>304.394653</ele>
        <time>2011-06-26T08:13:29Z</time>
      </trkpt>
      <trkpt lat="45.3392" lon="5.54164">
        <ele>304.875244</ele>
        <time>2011-06-26T08:13:37Z</time>
      </trkpt>
      <trkpt lat="45.33871" lon="5.54256">
        <ele>302.471924</ele>
        <time>2011-06-26T08:13:53Z</time>
      </trkpt>
      <trkpt lat="45.33837" lon="5.5431">
        <ele>303.433228</ele>
        <time>2011-06-26T08:14:04Z</time>
      </trkpt>
      <trkpt lat="45.33815" lon="5.54305">
        <ele>304.394653</ele>
        <time>2011-06-26T08:14:10Z</time>
      </trkpt>
      <trkpt lat="45.33796" lon="5.54282">
        <ele>304.875244</ele>
        <time>2011-06-26T08:14:16Z</time>
      </trkpt>
      <trkpt lat="45.33802" lon="5.5425">
        <ele>305.83667</ele>
        <time>2011-06-26T08:14:23Z</time>
      </trkpt>
      <trkpt lat="45.33867" lon="5.54157">
        <ele>304.394653</ele>
        <time>2011-06-26T08:14:40Z</time>
      </trkpt>
      <trkpt lat="45.33873" lon="5.54138">
        <ele>304.875244</ele>
        <time>2011-06-26T08:14:42Z</time>
      </trkpt>
      <trkpt lat="45.33865" lon="5.54108">
        <ele>305.355957</ele>
        <time>2011-06-26T08:14:46Z</time>
      </trkpt>
      <trkpt lat="45.33798" lon="5.54018">
        <ele>306.797852</ele>
        <time>2011-06-26T08:15:01Z</time>
      </trkpt>
      <trkpt lat="45.33757" lon="5.53945">
        <ele>306.317261</ele>
        <time>2011-06-26T08:15:11Z</time>
      </trkpt>
      <trkpt lat="45.33734" lon="5.53936">
        <ele>305.355957</ele>
        <time>2011-06-26T08:15:15Z</time>
      </trkpt>
      <trkpt lat="45.33701" lon="5.53949">
        <ele>304.875244</ele>
        <time>2011-06-26T08:15:22Z</time>
      </trkpt>
      <trkpt lat="45.33659" lon="5.53896">
        <ele>304.875244</ele>
        <time>2011-06-26T08:15:33Z</time>
      </trkpt>
      <trkpt lat="45.33629" lon="5.53831">
        <ele>302.471924</ele>
        <time>2011-06-26T08:15:49Z</time>
      </trkpt>
      <trkpt lat="45.33583" lon="5.53808">
        <ele>300.068726</ele>
        <time>2011-06-26T08:16:05Z</time>
      </trkpt>
      <trkpt lat="45.33538" lon="5.53758">
        <ele>301.51062</ele>
        <time>2011-06-26T08:16:25Z</time>
      </trkpt>
      <trkpt lat="45.33493" lon="5.53726">
        <ele>302.471924</ele>
        <time>2011-06-26T08:16:42Z</time>
      </trkpt>
      <trkpt lat="45.33438" lon="5.53655">
        <ele>301.991333</ele>
        <time>2011-06-26T08:16:59Z</time>
      </trkpt>
      <trkpt lat="45.33438" lon="5.53632">
        <ele>300.068726</ele>
        <time>2011-06-26T08:17:04Z</time>
      </trkpt>
      <trkpt lat="45.33474" lon="5.53574">
        <ele>310.162476</ele>
        <time>2011-06-26T08:17:26Z</time>
      </trkpt>
      <trkpt lat="45.33485" lon="5.53561">
        <ele>313.046509</ele>
        <time>2011-06-26T08:17:34Z</time>
      </trkpt>
      <trkpt lat="45.33483" lon="5.53537">
        <ele>314.007813</ele>
        <time>2011-06-26T08:17:42Z</time>
      </trkpt>
      <trkpt lat="45.3345" lon="5.53479">
        <ele>314.488403</ele>
        <time>2011-06-26T08:17:57Z</time>
      </trkpt>
      <trkpt lat="45.33395" lon="5.53406">
        <ele>313.046509</ele>
        <time>2011-06-26T08:18:18Z</time>
      </trkpt>
      <trkpt lat="45.33382" lon="5.53387">
        <ele>313.527222</ele>
        <time>2011-06-26T08:18:23Z</time>
      </trkpt>
      <trkpt lat="45.3336" lon="5.53363">
        <ele>312.565796</ele>
        <time>2011-06-26T08:18:28Z</time>
      </trkpt>
      <trkpt lat="45.3332" lon="5.53314">
        <ele>310.162476</ele>
        <time>2011-06-26T08:18:44Z</time>
      </trkpt>
      <trkpt lat="45.33313" lon="5.53239">
        <ele>306.317261</ele>
        <time>2011-06-26T08:19:01Z</time>
      </trkpt>
      <trkpt lat="45.33309" lon="5.53211">
        <ele>305.355957</ele>
        <time>2011-06-26T08:19:06Z</time>
      </trkpt>
      <trkpt lat="45.33305" lon="5.53205">
        <ele>305.83667</ele>
        <time>2011-06-26T08:19:08Z</time>
      </trkpt>
      <trkpt lat="45.33294" lon="5.53241">
        <ele>304.394653</ele>
        <time>2011-06-26T08:19:18Z</time>
      </trkpt>
      <trkpt lat="45.33287" lon="5.53256">
        <ele>304.394653</ele>
        <time>2011-06-26T08:19:23Z</time>
      </trkpt>
      <trkpt lat="45.33272" lon="5.53258">
        <ele>303.433228</ele>
        <time>2011-06-26T08:19:29Z</time>
      </trkpt>
      <trkpt lat="45.33268" lon="5.53252">
        <ele>302.952515</ele>
        <time>2011-06-26T08:19:31Z</time>
      </trkpt>
      <trkpt lat="45.33277" lon="5.53198">
        <ele>302.471924</ele>
        <time>2011-06-26T08:19:39Z</time>
      </trkpt>
      <trkpt lat="45.33259" lon="5.5317">
        <ele>302.471924</ele>
        <time>2011-06-26T08:19:50Z</time>
      </trkpt>
      <trkpt lat="45.33255" lon="5.53162">
        <ele>302.471924</ele>
        <time>2011-06-26T08:19:52Z</time>
      </trkpt>
      <trkpt lat="45.33249" lon="5.53151">
        <ele>302.471924</ele>
        <time>2011-06-26T08:19:54Z</time>
      </trkpt>
      <trkpt lat="45.33225" lon="5.53123">
        <ele>302.471924</ele>
        <time>2011-06-26T08:20:00Z</time>
      </trkpt>
      <trkpt lat="45.33176" lon="5.53065">
        <ele>291.897461</ele>
        <time>2011-06-26T08:20:11Z</time>
      </trkpt>
      <trkpt lat="45.33171" lon="5.53057">
        <ele>291.416748</ele>
        <time>2011-06-26T08:20:13Z</time>
      </trkpt>
      <trkpt lat="45.33131" lon="5.53029">
        <ele>286.129517</ele>
        <time>2011-06-26T08:20:22Z</time>
      </trkpt>
      <trkpt lat="45.33032" lon="5.52926">
        <ele>278.919678</ele>
        <time>2011-06-26T08:20:45Z</time>
      </trkpt>
      <trkpt lat="45.32931" lon="5.52763">
        <ele>276.516357</ele>
        <time>2011-06-26T08:21:05Z</time>
      </trkpt>
      <trkpt lat="45.32839" lon="5.52696">
        <ele>269.787109</ele>
        <time>2011-06-26T08:21:23Z</time>
      </trkpt>
      <trkpt lat="45.32832" lon="5.52698">
        <ele>267.864502</ele>
        <time>2011-06-26T08:21:25Z</time>
      </trkpt>
      <trkpt lat="45.32751" lon="5.52724">
        <ele>261.615967</ele>
        <time>2011-06-26T08:21:41Z</time>
      </trkpt>
      <trkpt lat="45.3274" lon="5.52726">
        <ele>261.615967</ele>
        <time>2011-06-26T08:21:43Z</time>
      </trkpt>
      <trkpt lat="45.32691" lon="5.52675">
        <ele>258.731934</ele>
        <time>2011-06-26T08:21:53Z</time>
      </trkpt>
      <trkpt lat="45.32586" lon="5.52595">
        <ele>254.886597</ele>
        <time>2011-06-26T08:22:12Z</time>
      </trkpt>
      <trkpt lat="45.32558" lon="5.52597">
        <ele>254.886597</ele>
        <time>2011-06-26T08:22:16Z</time>
      </trkpt>
      <trkpt lat="45.32536" lon="5.52582">
        <ele>253.444702</ele>
        <time>2011-06-26T08:22:20Z</time>
      </trkpt>
      <trkpt lat="45.32519" lon="5.52531">
        <ele>249.599487</ele>
        <time>2011-06-26T08:22:26Z</time>
      </trkpt>
      <trkpt lat="45.32481" lon="5.52436">
        <ele>242.389648</ele>
        <time>2011-06-26T08:22:37Z</time>
      </trkpt>
      <trkpt lat="45.32474" lon="5.52415">
        <ele>240.947632</ele>
        <time>2011-06-26T08:22:39Z</time>
      </trkpt>
      <trkpt lat="45.32459" lon="5.52346">
        <ele>235.660278</ele>
        <time>2011-06-26T08:22:45Z</time>
      </trkpt>
      <trkpt lat="45.32446" lon="5.52314">
        <ele>233.737671</ele>
        <time>2011-06-26T08:22:48Z</time>
      </trkpt>
      <trkpt lat="45.32427" lon="5.52278">
        <ele>233.25708</ele>
        <time>2011-06-26T08:22:52Z</time>
      </trkpt>
      <trkpt lat="45.32405" lon="5.52205">
        <ele>231.814941</ele>
        <time>2011-06-26T08:22:59Z</time>
      </trkpt>
      <trkpt lat="45.32384" lon="5.52166">
        <ele>229.892334</ele>
        <time>2011-06-26T08:23:04Z</time>
      </trkpt>
      <trkpt lat="45.3238" lon="5.5214">
        <ele>228.450439</ele>
        <time>2011-06-26T08:23:08Z</time>
      </trkpt>
      <trkpt lat="45.3235" lon="5.52061">
        <ele>224.605225</ele>
        <time>2011-06-26T08:23:26Z</time>
      </trkpt>
      <trkpt lat="45.32322" lon="5.52022">
        <ele>222.682495</ele>
        <time>2011-06-26T08:23:35Z</time>
      </trkpt>
      <trkpt lat="45.32309" lon="5.52014">
        <ele>222.682495</ele>
        <time>2011-06-26T08:23:38Z</time>
      </trkpt>
      <trkpt lat="45.32214" lon="5.51962">
        <ele>220.759888</ele>
        <time>2011-06-26T08:23:53Z</time>
      </trkpt>
      <trkpt lat="45.32206" lon="5.51954">
        <ele>220.279175</ele>
        <time>2011-06-26T08:23:55Z</time>
      </trkpt>
      <trkpt lat="45.32197" lon="5.51924">
        <ele>220.759888</ele>
        <time>2011-06-26T08:24:02Z</time>
      </trkpt>
      <trkpt lat="45.32232" lon="5.5187">
        <ele>220.759888</ele>
        <time>2011-06-26T08:24:19Z</time>
      </trkpt>
      <trkpt lat="45.3229" lon="5.51848">
        <ele>218.356567</ele>
        <time>2011-06-26T08:24:39Z</time>
      </trkpt>
      <trkpt lat="45.32322" lon="5.51891">
        <ele>220.279175</ele>
        <time>2011-06-26T08:24:54Z</time>
      </trkpt>
      <trkpt lat="45.3235" lon="5.51951">
        <ele>226.047119</ele>
        <time>2011-06-26T08:25:14Z</time>
      </trkpt>
      <trkpt lat="45.32378" lon="5.51984">
        <ele>229.892334</ele>
        <time>2011-06-26T08:25:32Z</time>
      </trkpt>
      <trkpt lat="45.32423" lon="5.51981">
        <ele>229.892334</ele>
        <time>2011-06-26T08:25:58Z</time>
      </trkpt>
      <trkpt lat="45.32453" lon="5.51994">
        <ele>232.776489</ele>
        <time>2011-06-26T08:26:16Z</time>
      </trkpt>
      <trkpt lat="45.32476" lon="5.52054">
        <ele>241.428223</ele>
        <time>2011-06-26T08:26:38Z</time>
      </trkpt>
      <trkpt lat="45.325" lon="5.52091">
        <ele>247.196045</ele>
        <time>2011-06-26T08:26:55Z</time>
      </trkpt>
      <trkpt lat="45.32502" lon="5.52093">
        <ele>248.157593</ele>
        <time>2011-06-26T08:26:57Z</time>
      </trkpt>
      <trkpt lat="45.32521" lon="5.5208">
        <ele>255.36731</ele>
        <time>2011-06-26T08:27:13Z</time>
      </trkpt>
      <trkpt lat="45.32547" lon="5.52087">
        <ele>260.17395</ele>
        <time>2011-06-26T08:27:34Z</time>
      </trkpt>
      <trkpt lat="45.32566" lon="5.52084">
        <ele>258.251343</ele>
        <time>2011-06-26T08:27:50Z</time>
      </trkpt>
      <trkpt lat="45.32594" lon="5.52072">
        <ele>262.577148</ele>
        <time>2011-06-26T08:28:15Z</time>
      </trkpt>
      <trkpt lat="45.3262" lon="5.52069">
        <ele>270.2677</ele>
        <time>2011-06-26T08:28:37Z</time>
      </trkpt>
      <trkpt lat="45.3265" lon="5.52054">
        <ele>273.151855</ele>
        <time>2011-06-26T08:29:03Z</time>
      </trkpt>
      <trkpt lat="45.32654" lon="5.52054">
        <ele>273.632446</ele>
        <time>2011-06-26T08:29:05Z</time>
      </trkpt>
      <trkpt lat="45.3268" lon="5.52059">
        <ele>276.99707</ele>
        <time>2011-06-26T08:29:23Z</time>
      </trkpt>
      <trkpt lat="45.3271" lon="5.52059">
        <ele>280.842407</ele>
        <time>2011-06-26T08:29:45Z</time>
      </trkpt>
      <trkpt lat="45.32742" lon="5.52052">
        <ele>284.206909</ele>
        <time>2011-06-26T08:30:09Z</time>
      </trkpt>
      <trkpt lat="45.32774" lon="5.52042">
        <ele>284.687622</ele>
        <time>2011-06-26T08:30:33Z</time>
      </trkpt>
      <trkpt lat="45.32792" lon="5.52048">
        <ele>286.129517</ele>
        <time>2011-06-26T08:30:44Z</time>
      </trkpt>
      <trkpt lat="45.32796" lon="5.52054">
        <ele>287.571411</ele>
        <time>2011-06-26T08:30:48Z</time>
      </trkpt>
      <trkpt lat="45.32828" lon="5.52061">
        <ele>293.339355</ele>
        <time>2011-06-26T08:31:12Z</time>
      </trkpt>
      <trkpt lat="45.32852" lon="5.52037">
        <ele>298.626709</ele>
        <time>2011-06-26T08:31:33Z</time>
      </trkpt>
      <trkpt lat="45.32875" lon="5.5202">
        <ele>301.51062</ele>
        <time>2011-06-26T08:32:03Z</time>
      </trkpt>
      <trkpt lat="45.32923" lon="5.52018">
        <ele>310.162476</ele>
        <time>2011-06-26T08:32:32Z</time>
      </trkpt>
      <trkpt lat="45.32927" lon="5.52029">
        <ele>313.046509</ele>
        <time>2011-06-26T08:32:38Z</time>
      </trkpt>
      <trkpt lat="45.32929" lon="5.52074">
        <ele>320.256348</ele>
        <time>2011-06-26T08:32:59Z</time>
      </trkpt>
      <trkpt lat="45.32925" lon="5.52108">
        <ele>317.853027</ele>
        <time>2011-06-26T08:33:06Z</time>
      </trkpt>
      <trkpt lat="45.32886" lon="5.52164">
        <ele>316.891724</ele>
        <time>2011-06-26T08:33:20Z</time>
      </trkpt>
      <trkpt lat="45.32875" lon="5.52181">
        <ele>317.853027</ele>
        <time>2011-06-26T08:33:24Z</time>
      </trkpt>
      <trkpt lat="45.32873" lon="5.522">
        <ele>319.775635</ele>
        <time>2011-06-26T08:33:29Z</time>
      </trkpt>
      <trkpt lat="45.32895" lon="5.52245">
        <ele>320.737061</ele>
        <time>2011-06-26T08:33:47Z</time>
      </trkpt>
      <trkpt lat="45.3292" lon="5.5229">
        <ele>322.178955</ele>
        <time>2011-06-26T08:34:04Z</time>
      </trkpt>
      <trkpt lat="45.32946" lon="5.52331">
        <ele>324.101563</ele>
        <time>2011-06-26T08:34:21Z</time>
      </trkpt>
      <trkpt lat="45.32948" lon="5.52348">
        <ele>324.101563</ele>
        <time>2011-06-26T08:34:38Z</time>
      </trkpt>
      <trkpt lat="45.32946" lon="5.52353">
        <ele>340.924683</ele>
        <time>2011-06-26T08:38:29Z</time>
      </trkpt>
      <trkpt lat="45.32953" lon="5.52372">
        <ele>339.482666</ele>
        <time>2011-06-26T08:38:51Z</time>
      </trkpt>
      <trkpt lat="45.32998" lon="5.52432">
        <ele>336.598877</ele>
        <time>2011-06-26T08:39:17Z</time>
      </trkpt>
      <trkpt lat="45.33049" lon="5.52496">
        <ele>333.234131</ele>
        <time>2011-06-26T08:39:39Z</time>
      </trkpt>
      <trkpt lat="45.33129" lon="5.52565">
        <ele>330.830933</ele>
        <time>2011-06-26T08:40:03Z</time>
      </trkpt>
      <trkpt lat="45.33174" lon="5.5261">
        <ele>336.598877</ele>
        <time>2011-06-26T08:40:20Z</time>
      </trkpt>
      <trkpt lat="45.33264" lon="5.52715">
        <ele>336.118164</ele>
        <time>2011-06-26T08:40:45Z</time>
      </trkpt>
      <trkpt lat="45.33313" lon="5.5272">
        <ele>335.156738</ele>
        <time>2011-06-26T08:41:05Z</time>
      </trkpt>
      <trkpt lat="45.33356" lon="5.52692">
        <ele>339.963379</ele>
        <time>2011-06-26T08:41:26Z</time>
      </trkpt>
      <trkpt lat="45.33382" lon="5.52668">
        <ele>344.77002</ele>
        <time>2011-06-26T08:41:40Z</time>
      </trkpt>
      <trkpt lat="45.33425" lon="5.52694">
        <ele>346.212036</ele>
        <time>2011-06-26T08:41:58Z</time>
      </trkpt>
      <trkpt lat="45.33476" lon="5.52733">
        <ele>344.77002</ele>
        <time>2011-06-26T08:42:18Z</time>
      </trkpt>
      <trkpt lat="45.33502" lon="5.52741">
        <ele>344.289429</ele>
        <time>2011-06-26T08:42:27Z</time>
      </trkpt>
      <trkpt lat="45.33504" lon="5.52724">
        <ele>343.808594</ele>
        <time>2011-06-26T08:42:31Z</time>
      </trkpt>
      <trkpt lat="45.33493" lon="5.52645">
        <ele>347.173218</ele>
        <time>2011-06-26T08:42:50Z</time>
      </trkpt>
      <trkpt lat="45.33502" lon="5.52599">
        <ele>350.057251</ele>
        <time>2011-06-26T08:43:01Z</time>
      </trkpt>
      <trkpt lat="45.33536" lon="5.52552">
        <ele>356.786377</ele>
        <time>2011-06-26T08:43:21Z</time>
      </trkpt>
      <trkpt lat="45.33571" lon="5.5249">
        <ele>361.59314</ele>
        <time>2011-06-26T08:43:43Z</time>
      </trkpt>
      <trkpt lat="45.33598" lon="5.52441">
        <ele>365.438354</ele>
        <time>2011-06-26T08:44:01Z</time>
      </trkpt>
      <trkpt lat="45.33626" lon="5.52458">
        <ele>365.918945</ele>
        <time>2011-06-26T08:44:14Z</time>
      </trkpt>
      <trkpt lat="45.33676" lon="5.52479">
        <ele>364.476929</ele>
        <time>2011-06-26T08:44:34Z</time>
      </trkpt>
      <trkpt lat="45.33678" lon="5.52464">
        <ele>366.399536</ele>
        <time>2011-06-26T08:44:38Z</time>
      </trkpt>
      <trkpt lat="45.33667" lon="5.52381">
        <ele>368.322266</ele>
        <time>2011-06-26T08:45:02Z</time>
      </trkpt>
      <trkpt lat="45.33618" lon="5.52318">
        <ele>367.841553</ele>
        <time>2011-06-26T08:45:18Z</time>
      </trkpt>
      <trkpt lat="45.33541" lon="5.52224">
        <ele>368.322266</ele>
        <time>2011-06-26T08:45:41Z</time>
      </trkpt>
      <trkpt lat="45.33465" lon="5.52134">
        <ele>371.68689</ele>
        <time>2011-06-26T08:46:04Z</time>
      </trkpt>
      <trkpt lat="45.33418" lon="5.52065">
        <ele>367.841553</ele>
        <time>2011-06-26T08:46:17Z</time>
      </trkpt>
      <trkpt lat="45.33347" lon="5.51956">
        <ele>363.035034</ele>
        <time>2011-06-26T08:46:31Z</time>
      </trkpt>
      <trkpt lat="45.33262" lon="5.51829">
        <ele>359.67041</ele>
        <time>2011-06-26T08:46:49Z</time>
      </trkpt>
      <trkpt lat="45.33169" lon="5.5167">
        <ele>357.26709</ele>
        <time>2011-06-26T08:47:14Z</time>
      </trkpt>
      <trkpt lat="45.33103" lon="5.51458">
        <ele>347.653931</ele>
        <time>2011-06-26T08:47:33Z</time>
      </trkpt>
      <trkpt lat="45.3312" lon="5.51387">
        <ele>346.212036</ele>
        <time>2011-06-26T08:47:44Z</time>
      </trkpt>
      <trkpt lat="45.33148" lon="5.51293">
        <ele>345.731323</ele>
        <time>2011-06-26T08:48:05Z</time>
      </trkpt>
      <trkpt lat="45.33167" lon="5.51224">
        <ele>347.653931</ele>
        <time>2011-06-26T08:48:22Z</time>
      </trkpt>
      <trkpt lat="45.33208" lon="5.51158">
        <ele>351.979858</ele>
        <time>2011-06-26T08:48:44Z</time>
      </trkpt>
      <trkpt lat="45.33244" lon="5.51082">
        <ele>352.941162</ele>
        <time>2011-06-26T08:49:04Z</time>
      </trkpt>
      <trkpt lat="45.33247" lon="5.51072">
        <ele>352.941162</ele>
        <time>2011-06-26T08:49:06Z</time>
      </trkpt>
      <trkpt lat="45.33214" lon="5.51046">
        <ele>352.460571</ele>
        <time>2011-06-26T08:49:17Z</time>
      </trkpt>
      <trkpt lat="45.33139" lon="5.51027">
        <ele>350.537842</ele>
        <time>2011-06-26T08:49:35Z</time>
      </trkpt>
      <trkpt lat="45.33135" lon="5.51024">
        <ele>351.018433</ele>
        <time>2011-06-26T08:49:36Z</time>
      </trkpt>
      <trkpt lat="45.33135" lon="5.51003">
        <ele>352.941162</ele>
        <time>2011-06-26T08:49:43Z</time>
      </trkpt>
      <trkpt lat="45.33135" lon="5.50954">
        <ele>355.825195</ele>
        <time>2011-06-26T08:50:01Z</time>
      </trkpt>
      <trkpt lat="45.33139" lon="5.50887">
        <ele>357.747803</ele>
        <time>2011-06-26T08:50:21Z</time>
      </trkpt>
      <trkpt lat="45.33137" lon="5.50844">
        <ele>356.305786</ele>
        <time>2011-06-26T08:50:33Z</time>
      </trkpt>
      <trkpt lat="45.33133" lon="5.50829">
        <ele>356.305786</ele>
        <time>2011-06-26T08:50:35Z</time>
      </trkpt>
      <trkpt lat="45.33131" lon="5.50718">
        <ele>354.383179</ele>
        <time>2011-06-26T08:50:46Z</time>
      </trkpt>
      <trkpt lat="45.33139" lon="5.50638">
        <ele>355.344482</ele>
        <time>2011-06-26T08:50:58Z</time>
      </trkpt>
      <trkpt lat="45.33111" lon="5.50638">
        <ele>353.421875</ele>
        <time>2011-06-26T08:51:12Z</time>
      </trkpt>
      <trkpt lat="45.33062" lon="5.50668">
        <ele>353.421875</ele>
        <time>2011-06-26T08:51:33Z</time>
      </trkpt>
      <trkpt lat="45.32989" lon="5.50692">
        <ele>354.383179</ele>
        <time>2011-06-26T08:51:54Z</time>
      </trkpt>
      <trkpt lat="45.32905" lon="5.50703">
        <ele>353.902588</ele>
        <time>2011-06-26T08:52:11Z</time>
      </trkpt>
      <trkpt lat="45.32785" lon="5.50705">
        <ele>351.499146</ele>
        <time>2011-06-26T08:52:30Z</time>
      </trkpt>
      <trkpt lat="45.3274" lon="5.50696">
        <ele>352.460571</ele>
        <time>2011-06-26T08:52:38Z</time>
      </trkpt>
      <trkpt lat="45.32676" lon="5.50632">
        <ele>351.979858</ele>
        <time>2011-06-26T08:52:52Z</time>
      </trkpt>
      <trkpt lat="45.32594" lon="5.50582">
        <ele>352.460571</ele>
        <time>2011-06-26T08:53:09Z</time>
      </trkpt>
      <trkpt lat="45.32547" lon="5.5051">
        <ele>351.499146</ele>
        <time>2011-06-26T08:53:24Z</time>
      </trkpt>
      <trkpt lat="45.32474" lon="5.50413">
        <ele>351.499146</ele>
        <time>2011-06-26T08:53:53Z</time>
      </trkpt>
      <trkpt lat="45.32416" lon="5.50349">
        <ele>351.499146</ele>
        <time>2011-06-26T08:54:16Z</time>
      </trkpt>
      <trkpt lat="45.32408" lon="5.50323">
        <ele>351.979858</ele>
        <time>2011-06-26T08:54:30Z</time>
      </trkpt>
      <trkpt lat="45.3239" lon="5.50282">
        <ele>360.631714</ele>
        <time>2011-06-26T08:54:52Z</time>
      </trkpt>
      <trkpt lat="45.32363" lon="5.50269">
        <ele>365.438354</ele>
        <time>2011-06-26T08:55:12Z</time>
      </trkpt>
      <trkpt lat="45.32317" lon="5.50261">
        <ele>372.648193</ele>
        <time>2011-06-26T08:55:35Z</time>
      </trkpt>
      <trkpt lat="45.32281" lon="5.50235">
        <ele>373.609497</ele>
        <time>2011-06-26T08:55:54Z</time>
      </trkpt>
      <trkpt lat="45.32236" lon="5.50192">
        <ele>379.377441</ele>
        <time>2011-06-26T08:56:19Z</time>
      </trkpt>
      <trkpt lat="45.32189" lon="5.5017">
        <ele>381.78064</ele>
        <time>2011-06-26T08:56:39Z</time>
      </trkpt>
      <trkpt lat="45.32131" lon="5.50115">
        <ele>381.300049</ele>
        <time>2011-06-26T08:56:57Z</time>
      </trkpt>
      <trkpt lat="45.32017" lon="5.49984">
        <ele>377.935425</ele>
        <time>2011-06-26T08:57:23Z</time>
      </trkpt>
      <trkpt lat="45.31918" lon="5.49846">
        <ele>382.261353</ele>
        <time>2011-06-26T08:57:47Z</time>
      </trkpt>
      <trkpt lat="45.31843" lon="5.49853">
        <ele>381.78064</ele>
        <time>2011-06-26T08:58:00Z</time>
      </trkpt>
      <trkpt lat="45.31811" lon="5.49816">
        <ele>382.261353</ele>
        <time>2011-06-26T08:58:11Z</time>
      </trkpt>
      <trkpt lat="45.31766" lon="5.49784">
        <ele>380.819458</ele>
        <time>2011-06-26T08:58:24Z</time>
      </trkpt>
      <trkpt lat="45.3176" lon="5.49778">
        <ele>380.338745</ele>
        <time>2011-06-26T08:58:26Z</time>
      </trkpt>
      <trkpt lat="45.31751" lon="5.49758">
        <ele>380.338745</ele>
        <time>2011-06-26T08:58:30Z</time>
      </trkpt>
      <trkpt lat="45.31714" lon="5.49709">
        <ele>378.896851</ele>
        <time>2011-06-26T08:58:43Z</time>
      </trkpt>
      <trkpt lat="45.31714" lon="5.49701">
        <ele>378.896851</ele>
        <time>2011-06-26T08:58:45Z</time>
      </trkpt>
      <trkpt lat="45.31736" lon="5.49666">
        <ele>379.377441</ele>
        <time>2011-06-26T08:58:58Z</time>
      </trkpt>
      <trkpt lat="45.31762" lon="5.49634">
        <ele>379.377441</ele>
        <time>2011-06-26T08:59:05Z</time>
      </trkpt>
      <trkpt lat="45.31766" lon="5.49628">
        <ele>379.377441</ele>
        <time>2011-06-26T08:59:06Z</time>
      </trkpt>
      <trkpt lat="45.31779" lon="5.49625">
        <ele>377.454834</ele>
        <time>2011-06-26T08:59:10Z</time>
      </trkpt>
      <trkpt lat="45.31824" lon="5.49673">
        <ele>377.935425</ele>
        <time>2011-06-26T08:59:29Z</time>
      </trkpt>
      <trkpt lat="45.3191" lon="5.49748">
        <ele>376.49353</ele>
        <time>2011-06-26T08:59:56Z</time>
      </trkpt>
      <trkpt lat="45.32013" lon="5.49812">
        <ele>376.49353</ele>
        <time>2011-06-26T09:00:22Z</time>
      </trkpt>
      <trkpt lat="45.32101" lon="5.49834">
        <ele>376.974243</ele>
        <time>2011-06-26T09:00:45Z</time>
      </trkpt>
      <trkpt lat="45.32148" lon="5.49844">
        <ele>378.416138</ele>
        <time>2011-06-26T09:01:04Z</time>
      </trkpt>
      <trkpt lat="45.32204" lon="5.49861">
        <ele>379.858032</ele>
        <time>2011-06-26T09:01:25Z</time>
      </trkpt>
      <trkpt lat="45.32277" lon="5.49917">
        <ele>380.819458</ele>
        <time>2011-06-26T09:01:53Z</time>
      </trkpt>
      <trkpt lat="45.32343" lon="5.49969">
        <ele>381.300049</ele>
        <time>2011-06-26T09:02:13Z</time>
      </trkpt>
      <trkpt lat="45.32528" lon="5.50065">
        <ele>379.377441</ele>
        <time>2011-06-26T09:02:37Z</time>
      </trkpt>
      <trkpt lat="45.32536" lon="5.50018">
        <ele>378.416138</ele>
        <time>2011-06-26T09:02:50Z</time>
      </trkpt>
      <trkpt lat="45.3253" lon="5.49962">
        <ele>377.935425</ele>
        <time>2011-06-26T09:02:58Z</time>
      </trkpt>
      <trkpt lat="45.32551" lon="5.49816">
        <ele>370.244873</ele>
        <time>2011-06-26T09:03:17Z</time>
      </trkpt>
      <trkpt lat="45.32549" lon="5.49797">
        <ele>369.764282</ele>
        <time>2011-06-26T09:03:20Z</time>
      </trkpt>
      <trkpt lat="45.32564" lon="5.49662">
        <ele>370.244873</ele>
        <time>2011-06-26T09:03:42Z</time>
      </trkpt>
      <trkpt lat="45.32611" lon="5.49638">
        <ele>369.764282</ele>
        <time>2011-06-26T09:03:56Z</time>
      </trkpt>
      <trkpt lat="45.32674" lon="5.4958">
        <ele>365.918945</ele>
        <time>2011-06-26T09:04:13Z</time>
      </trkpt>
      <trkpt lat="45.32704" lon="5.49542">
        <ele>365.438354</ele>
        <time>2011-06-26T09:04:22Z</time>
      </trkpt>
      <trkpt lat="45.32712" lon="5.4954">
        <ele>366.880249</ele>
        <time>2011-06-26T09:04:26Z</time>
      </trkpt>
      <trkpt lat="45.32717" lon="5.49544">
        <ele>367.841553</ele>
        <time>2011-06-26T09:04:28Z</time>
      </trkpt>
      <trkpt lat="45.32759" lon="5.49625">
        <ele>369.764282</ele>
        <time>2011-06-26T09:04:46Z</time>
      </trkpt>
      <trkpt lat="45.32811" lon="5.49681">
        <ele>371.68689</ele>
        <time>2011-06-26T09:05:05Z</time>
      </trkpt>
      <trkpt lat="45.32858" lon="5.49746">
        <ele>369.283691</ele>
        <time>2011-06-26T09:05:21Z</time>
      </trkpt>
      <trkpt lat="45.32931" lon="5.49834">
        <ele>368.322266</ele>
        <time>2011-06-26T09:05:36Z</time>
      </trkpt>
      <trkpt lat="45.32965" lon="5.49855">
        <ele>366.880249</ele>
        <time>2011-06-26T09:05:40Z</time>
      </trkpt>
      <trkpt lat="45.32998" lon="5.49874">
        <ele>366.399536</ele>
        <time>2011-06-26T09:05:44Z</time>
      </trkpt>
      <trkpt lat="45.33036" lon="5.49864">
        <ele>365.918945</ele>
        <time>2011-06-26T09:05:49Z</time>
      </trkpt>
      <trkpt lat="45.33073" lon="5.49853">
        <ele>365.438354</ele>
        <time>2011-06-26T09:05:54Z</time>
      </trkpt>
      <trkpt lat="45.33116" lon="5.49767">
        <ele>360.631714</ele>
        <time>2011-06-26T09:06:07Z</time>
      </trkpt>
      <trkpt lat="45.33118" lon="5.49761">
        <ele>360.631714</ele>
        <time>2011-06-26T09:06:08Z</time>
      </trkpt>
      <trkpt lat="45.33122" lon="5.49746">
        <ele>359.67041</ele>
        <time>2011-06-26T09:06:10Z</time>
      </trkpt>
      <trkpt lat="45.33129" lon="5.49709">
        <ele>357.26709</ele>
        <time>2011-06-26T09:06:14Z</time>
      </trkpt>
      <trkpt lat="45.33129" lon="5.4969">
        <ele>355.344482</ele>
        <time>2011-06-26T09:06:16Z</time>
      </trkpt>
      <trkpt lat="45.33167" lon="5.49516">
        <ele>348.615234</ele>
        <time>2011-06-26T09:06:34Z</time>
      </trkpt>
      <trkpt lat="45.33182" lon="5.49467">
        <ele>347.653931</ele>
        <time>2011-06-26T09:06:40Z</time>
      </trkpt>
      <trkpt lat="45.33232" lon="5.49402">
        <ele>344.289429</ele>
        <time>2011-06-26T09:06:48Z</time>
      </trkpt>
      <trkpt lat="45.33257" lon="5.49366">
        <ele>343.808594</ele>
        <time>2011-06-26T09:06:52Z</time>
      </trkpt>
      <trkpt lat="45.33268" lon="5.49327">
        <ele>343.808594</ele>
        <time>2011-06-26T09:06:55Z</time>
      </trkpt>
      <trkpt lat="45.33298" lon="5.49271">
        <ele>342.366699</ele>
        <time>2011-06-26T09:07:00Z</time>
      </trkpt>
      <trkpt lat="45.33326" lon="5.49263">
        <ele>342.84729</ele>
        <time>2011-06-26T09:07:03Z</time>
      </trkpt>
      <trkpt lat="45.33395" lon="5.4922">
        <ele>332.75354</ele>
        <time>2011-06-26T09:07:10Z</time>
      </trkpt>
      <trkpt lat="45.3348" lon="5.49207">
        <ele>325.543579</ele>
        <time>2011-06-26T09:07:19Z</time>
      </trkpt>
      <trkpt lat="45.33521" lon="5.49205">
        <ele>322.659668</ele>
        <time>2011-06-26T09:07:27Z</time>
      </trkpt>
      <trkpt lat="45.33583" lon="5.49213">
        <ele>319.295044</ele>
        <time>2011-06-26T09:07:50Z</time>
      </trkpt>
      <trkpt lat="45.33639" lon="5.49237">
        <ele>315.93042</ele>
        <time>2011-06-26T09:08:10Z</time>
      </trkpt>
      <trkpt lat="45.33708" lon="5.49306">
        <ele>318.814331</ele>
        <time>2011-06-26T09:08:39Z</time>
      </trkpt>
      <trkpt lat="45.33757" lon="5.49351">
        <ele>319.775635</ele>
        <time>2011-06-26T09:09:10Z</time>
      </trkpt>
      <trkpt lat="45.33781" lon="5.49383">
        <ele>322.178955</ele>
        <time>2011-06-26T09:09:32Z</time>
      </trkpt>
      <trkpt lat="45.33768" lon="5.4943">
        <ele>321.217773</ele>
        <time>2011-06-26T09:09:54Z</time>
      </trkpt>
      <trkpt lat="45.33774" lon="5.49501">
        <ele>321.217773</ele>
        <time>2011-06-26T09:10:17Z</time>
      </trkpt>
      <trkpt lat="45.33798" lon="5.49613">
        <ele>326.02417</ele>
        <time>2011-06-26T09:10:50Z</time>
      </trkpt>
      <trkpt lat="45.33815" lon="5.49743">
        <ele>326.504883</ele>
        <time>2011-06-26T09:11:04Z</time>
      </trkpt>
      <trkpt lat="45.33815" lon="5.49746">
        <ele>325.543579</ele>
        <time>2011-06-26T09:11:06Z</time>
      </trkpt>
      <trkpt lat="45.3383" lon="5.49752">
        <ele>325.062988</ele>
        <time>2011-06-26T09:11:10Z</time>
      </trkpt>
      <trkpt lat="45.3385" lon="5.49782">
        <ele>325.062988</ele>
        <time>2011-06-26T09:11:13Z</time>
      </trkpt>
      <trkpt lat="45.3388" lon="5.49866">
        <ele>327.466187</ele>
        <time>2011-06-26T09:11:28Z</time>
      </trkpt>
      <trkpt lat="45.33882" lon="5.49872">
        <ele>327.466187</ele>
        <time>2011-06-26T09:11:29Z</time>
      </trkpt>
      <trkpt lat="45.33903" lon="5.49909">
        <ele>327.466187</ele>
        <time>2011-06-26T09:11:37Z</time>
      </trkpt>
      <trkpt lat="45.33961" lon="5.49971">
        <ele>326.504883</ele>
        <time>2011-06-26T09:11:56Z</time>
      </trkpt>
      <trkpt lat="45.33989" lon="5.50046">
        <ele>323.140381</ele>
        <time>2011-06-26T09:12:12Z</time>
      </trkpt>
      <trkpt lat="45.33976" lon="5.50082">
        <ele>324.101563</ele>
        <time>2011-06-26T09:12:19Z</time>
      </trkpt>
      <trkpt lat="45.33957" lon="5.50138">
        <ele>326.504883</ele>
        <time>2011-06-26T09:12:29Z</time>
      </trkpt>
      <trkpt lat="45.33963" lon="5.50179">
        <ele>327.946777</ele>
        <time>2011-06-26T09:12:36Z</time>
      </trkpt>
      <trkpt lat="45.34034" lon="5.50288">
        <ele>326.504883</ele>
        <time>2011-06-26T09:12:59Z</time>
      </trkpt>
      <trkpt lat="45.34062" lon="5.50336">
        <ele>326.02417</ele>
        <time>2011-06-26T09:13:08Z</time>
      </trkpt>
      <trkpt lat="45.34056" lon="5.50424">
        <ele>325.062988</ele>
        <time>2011-06-26T09:13:18Z</time>
      </trkpt>
      <trkpt lat="45.34064" lon="5.50409">
        <ele>323.140381</ele>
        <time>2011-06-26T09:13:24Z</time>
      </trkpt>
      <trkpt lat="45.34068" lon="5.50396">
        <ele>323.140381</ele>
        <time>2011-06-26T09:13:26Z</time>
      </trkpt>
      <trkpt lat="45.34118" lon="5.50288">
        <ele>321.698364</ele>
        <time>2011-06-26T09:13:37Z</time>
      </trkpt>
      <trkpt lat="45.34133" lon="5.50263">
        <ele>321.698364</ele>
        <time>2011-06-26T09:13:39Z</time>
      </trkpt>
      <trkpt lat="45.34169" lon="5.50231">
        <ele>320.256348</ele>
        <time>2011-06-26T09:13:43Z</time>
      </trkpt>
      <trkpt lat="45.34294" lon="5.50198">
        <ele>318.814331</ele>
        <time>2011-06-26T09:13:57Z</time>
      </trkpt>
      <trkpt lat="45.34343" lon="5.50185">
        <ele>318.814331</ele>
        <time>2011-06-26T09:14:03Z</time>
      </trkpt>
      <trkpt lat="45.34384" lon="5.50237">
        <ele>317.372437</ele>
        <time>2011-06-26T09:14:18Z</time>
      </trkpt>
      <trkpt lat="45.3444" lon="5.50228">
        <ele>314.969116</ele>
        <time>2011-06-26T09:14:34Z</time>
      </trkpt>
      <trkpt lat="45.34465" lon="5.50271">
        <ele>315.449829</ele>
        <time>2011-06-26T09:14:47Z</time>
      </trkpt>
      <trkpt lat="45.3451" lon="5.50351">
        <ele>314.969116</ele>
        <time>2011-06-26T09:15:10Z</time>
      </trkpt>
      <trkpt lat="45.34555" lon="5.50381">
        <ele>314.969116</ele>
        <time>2011-06-26T09:15:26Z</time>
      </trkpt>
      <trkpt lat="45.34622" lon="5.50471">
        <ele>311.123779</ele>
        <time>2011-06-26T09:15:49Z</time>
      </trkpt>
      <trkpt lat="45.34704" lon="5.50574">
        <ele>307.278564</ele>
        <time>2011-06-26T09:16:12Z</time>
      </trkpt>
      <trkpt lat="45.34725" lon="5.50604">
        <ele>307.278564</ele>
        <time>2011-06-26T09:16:18Z</time>
      </trkpt>
      <trkpt lat="45.348" lon="5.5066">
        <ele>309.681885</ele>
        <time>2011-06-26T09:16:37Z</time>
      </trkpt>
      <trkpt lat="45.34847" lon="5.50696">
        <ele>310.162476</ele>
        <time>2011-06-26T09:16:49Z</time>
      </trkpt>
      <trkpt lat="45.34869" lon="5.50758">
        <ele>310.643066</ele>
        <time>2011-06-26T09:17:00Z</time>
      </trkpt>
      <trkpt lat="45.34864" lon="5.50776">
        <ele>311.123779</ele>
        <time>2011-06-26T09:17:03Z</time>
      </trkpt>
      <trkpt lat="45.34858" lon="5.50793">
        <ele>312.085205</ele>
        <time>2011-06-26T09:17:06Z</time>
      </trkpt>
      <trkpt lat="45.34834" lon="5.50883">
        <ele>316.411011</ele>
        <time>2011-06-26T09:17:24Z</time>
      </trkpt>
      <trkpt lat="45.34849" lon="5.50956">
        <ele>316.411011</ele>
        <time>2011-06-26T09:17:39Z</time>
      </trkpt>
      <trkpt lat="45.34899" lon="5.51022">
        <ele>320.737061</ele>
        <time>2011-06-26T09:17:58Z</time>
      </trkpt>
      <trkpt lat="45.3492" lon="5.51024">
        <ele>321.698364</ele>
        <time>2011-06-26T09:18:05Z</time>
      </trkpt>
      <trkpt lat="45.34942" lon="5.5099">
        <ele>318.333618</ele>
        <time>2011-06-26T09:18:13Z</time>
      </trkpt>
      <trkpt lat="45.3495" lon="5.50997">
        <ele>318.333618</ele>
        <time>2011-06-26T09:18:15Z</time>
      </trkpt>
      <trkpt lat="45.3498" lon="5.51012">
        <ele>318.814331</ele>
        <time>2011-06-26T09:18:21Z</time>
      </trkpt>
      <trkpt lat="45.35038" lon="5.51033">
        <ele>319.775635</ele>
        <time>2011-06-26T09:18:38Z</time>
      </trkpt>
      <trkpt lat="45.35103" lon="5.51076">
        <ele>323.620972</ele>
        <time>2011-06-26T09:18:58Z</time>
      </trkpt>
      <trkpt lat="45.35141" lon="5.5108">
        <ele>325.543579</ele>
        <time>2011-06-26T09:19:09Z</time>
      </trkpt>
      <trkpt lat="45.35193" lon="5.51048">
        <ele>330.830933</ele>
        <time>2011-06-26T09:19:33Z</time>
      </trkpt>
      <trkpt lat="45.35229" lon="5.51037">
        <ele>333.714722</ele>
        <time>2011-06-26T09:19:51Z</time>
      </trkpt>
      <trkpt lat="45.3524" lon="5.5104">
        <ele>335.637329</ele>
        <time>2011-06-26T09:19:57Z</time>
      </trkpt>
      <trkpt lat="45.35261" lon="5.51078">
        <ele>339.963379</ele>
        <time>2011-06-26T09:20:15Z</time>
      </trkpt>
      <trkpt lat="45.35302" lon="5.5111">
        <ele>345.731323</ele>
        <time>2011-06-26T09:20:37Z</time>
      </trkpt>
      <trkpt lat="45.35349" lon="5.51121">
        <ele>351.018433</ele>
        <time>2011-06-26T09:20:59Z</time>
      </trkpt>
      <trkpt lat="45.35388" lon="5.51121">
        <ele>355.344482</ele>
        <time>2011-06-26T09:21:19Z</time>
      </trkpt>
      <trkpt lat="45.35407" lon="5.51119">
        <ele>352.941162</ele>
        <time>2011-06-26T09:21:27Z</time>
      </trkpt>
      <trkpt lat="45.35446" lon="5.51055">
        <ele>351.979858</ele>
        <time>2011-06-26T09:21:39Z</time>
      </trkpt>
      <trkpt lat="45.35478" lon="5.50984">
        <ele>351.018433</ele>
        <time>2011-06-26T09:21:53Z</time>
      </trkpt>
      <trkpt lat="45.35491" lon="5.50958">
        <ele>350.057251</ele>
        <time>2011-06-26T09:22:00Z</time>
      </trkpt>
      <trkpt lat="45.35497" lon="5.50956">
        <ele>349.576538</ele>
        <time>2011-06-26T09:22:02Z</time>
      </trkpt>
      <trkpt lat="45.35504" lon="5.50949">
        <ele>349.095825</ele>
        <time>2011-06-26T09:22:05Z</time>
      </trkpt>
      <trkpt lat="45.3551" lon="5.50937">
        <ele>351.018433</ele>
        <time>2011-06-26T09:22:09Z</time>
      </trkpt>
      <trkpt lat="45.35521" lon="5.50896">
        <ele>353.421875</ele>
        <time>2011-06-26T09:22:19Z</time>
      </trkpt>
      <trkpt lat="45.35525" lon="5.50797">
        <ele>351.499146</ele>
        <time>2011-06-26T09:22:29Z</time>
      </trkpt>
      <trkpt lat="45.35532" lon="5.50773">
        <ele>350.057251</ele>
        <time>2011-06-26T09:22:32Z</time>
      </trkpt>
      <trkpt lat="45.35609" lon="5.50715">
        <ele>346.692627</ele>
        <time>2011-06-26T09:22:41Z</time>
      </trkpt>
      <trkpt lat="45.35618" lon="5.50711">
        <ele>346.692627</ele>
        <time>2011-06-26T09:22:42Z</time>
      </trkpt>
      <trkpt lat="45.35652" lon="5.50692">
        <ele>346.212036</ele>
        <time>2011-06-26T09:22:51Z</time>
      </trkpt>
      <trkpt lat="45.35656" lon="5.50692">
        <ele>345.25061</ele>
        <time>2011-06-26T09:22:53Z</time>
      </trkpt>
      <trkpt lat="45.35639" lon="5.507">
        <ele>344.289429</ele>
        <time>2011-06-26T09:23:04Z</time>
      </trkpt>
      <trkpt lat="45.35631" lon="5.50715">
        <ele>342.84729</ele>
        <time>2011-06-26T09:23:18Z</time>
      </trkpt>
      <trkpt lat="45.35656" lon="5.50733">
        <ele>347.653931</ele>
        <time>2011-06-26T09:23:36Z</time>
      </trkpt>
      <trkpt lat="45.35676" lon="5.50756">
        <ele>345.731323</ele>
        <time>2011-06-26T09:23:55Z</time>
      </trkpt>
      <trkpt lat="45.35755" lon="5.50864">
        <ele>345.25061</ele>
        <time>2011-06-26T09:24:23Z</time>
      </trkpt>
      <trkpt lat="45.35783" lon="5.50894">
        <ele>346.692627</ele>
        <time>2011-06-26T09:24:42Z</time>
      </trkpt>
      <trkpt lat="45.35798" lon="5.50919">
        <ele>349.576538</ele>
        <time>2011-06-26T09:25:03Z</time>
      </trkpt>
      <trkpt lat="45.35813" lon="5.50934">
        <ele>353.421875</ele>
        <time>2011-06-26T09:25:34Z</time>
      </trkpt>
      <trkpt lat="45.35821" lon="5.50941">
        <ele>355.344482</ele>
        <time>2011-06-26T09:25:54Z</time>
      </trkpt>
      <trkpt lat="45.35839" lon="5.50964">
        <ele>358.708984</ele>
        <time>2011-06-26T09:26:21Z</time>
      </trkpt>
      <trkpt lat="45.3586" lon="5.5099">
        <ele>361.59314</ele>
        <time>2011-06-26T09:26:40Z</time>
      </trkpt>
      <trkpt lat="45.35884" lon="5.51005">
        <ele>373.609497</ele>
        <time>2011-06-26T09:27:03Z</time>
      </trkpt>
      <trkpt lat="45.35912" lon="5.51027">
        <ele>381.78064</ele>
        <time>2011-06-26T09:27:32Z</time>
      </trkpt>
      <trkpt lat="45.35946" lon="5.51037">
        <ele>383.222656</ele>
        <time>2011-06-26T09:27:57Z</time>
      </trkpt>
      <trkpt lat="45.36032" lon="5.50994">
        <ele>384.664795</ele>
        <time>2011-06-26T09:28:24Z</time>
      </trkpt>
      <trkpt lat="45.36083" lon="5.50831">
        <ele>384.184082</ele>
        <time>2011-06-26T09:28:44Z</time>
      </trkpt>
      <trkpt lat="45.36081" lon="5.50799">
        <ele>384.184082</ele>
        <time>2011-06-26T09:28:53Z</time>
      </trkpt>
      <trkpt lat="45.36081" lon="5.50782">
        <ele>384.184082</ele>
        <time>2011-06-26T09:28:55Z</time>
      </trkpt>
      <trkpt lat="45.36083" lon="5.50713">
        <ele>384.184082</ele>
        <time>2011-06-26T09:29:02Z</time>
      </trkpt>
      <trkpt lat="45.36081" lon="5.50668">
        <ele>384.184082</ele>
        <time>2011-06-26T09:29:07Z</time>
      </trkpt>
      <trkpt lat="45.36062" lon="5.50625">
        <ele>384.184082</ele>
        <time>2011-06-26T09:29:11Z</time>
      </trkpt>
      <trkpt lat="45.36021" lon="5.50518">
        <ele>384.184082</ele>
        <time>2011-06-26T09:29:20Z</time>
      </trkpt>
      <trkpt lat="45.35976" lon="5.50464">
        <ele>384.184082</ele>
        <time>2011-06-26T09:29:26Z</time>
      </trkpt>
      <trkpt lat="45.35985" lon="5.5043">
        <ele>384.184082</ele>
        <time>2011-06-26T09:29:31Z</time>
      </trkpt>
      <trkpt lat="45.36" lon="5.50413">
        <ele>385.145386</ele>
        <time>2011-06-26T09:29:35Z</time>
      </trkpt>
      <trkpt lat="45.36004" lon="5.50407">
        <ele>385.625977</ele>
        <time>2011-06-26T09:29:37Z</time>
      </trkpt>
      <trkpt lat="45.35995" lon="5.50376">
        <ele>387.067993</ele>
        <time>2011-06-26T09:29:45Z</time>
      </trkpt>
      <trkpt lat="45.35931" lon="5.50462">
        <ele>387.548584</ele>
        <time>2011-06-26T09:29:53Z</time>
      </trkpt>
      <trkpt lat="45.35933" lon="5.50499">
        <ele>386.106689</ele>
        <time>2011-06-26T09:30:00Z</time>
      </trkpt>
      <trkpt lat="45.35972" lon="5.50561">
        <ele>385.145386</ele>
        <time>2011-06-26T09:30:15Z</time>
      </trkpt>
      <trkpt lat="45.36008" lon="5.5061">
        <ele>383.703247</ele>
        <time>2011-06-26T09:30:26Z</time>
      </trkpt>
      <trkpt lat="45.36021" lon="5.50645">
        <ele>383.703247</ele>
        <time>2011-06-26T09:30:32Z</time>
      </trkpt>
      <trkpt lat="45.36025" lon="5.50658">
        <ele>383.703247</ele>
        <time>2011-06-26T09:30:34Z</time>
      </trkpt>
      <trkpt lat="45.36027" lon="5.5072">
        <ele>383.703247</ele>
        <time>2011-06-26T09:30:43Z</time>
      </trkpt>
      <trkpt lat="45.36019" lon="5.50731">
        <ele>383.703247</ele>
        <time>2011-06-26T09:30:46Z</time>
      </trkpt>
      <trkpt lat="45.36008" lon="5.50726">
        <ele>383.703247</ele>
        <time>2011-06-26T09:30:49Z</time>
      </trkpt>
      <trkpt lat="45.35995" lon="5.50705">
        <ele>383.703247</ele>
        <time>2011-06-26T09:30:54Z</time>
      </trkpt>
      <trkpt lat="45.35989" lon="5.50681">
        <ele>384.184082</ele>
        <time>2011-06-26T09:30:58Z</time>
      </trkpt>
      <trkpt lat="45.35965" lon="5.50572">
        <ele>382.261353</ele>
        <time>2011-06-26T09:31:19Z</time>
      </trkpt>
      <trkpt lat="45.3594" lon="5.50557">
        <ele>381.78064</ele>
        <time>2011-06-26T09:31:33Z</time>
      </trkpt>
      <trkpt lat="45.35935" lon="5.50559">
        <ele>381.300049</ele>
        <time>2011-06-26T09:31:37Z</time>
      </trkpt>
      <trkpt lat="45.3594" lon="5.50578">
        <ele>379.858032</ele>
        <time>2011-06-26T09:31:47Z</time>
      </trkpt>
      <trkpt lat="45.35933" lon="5.50587">
        <ele>381.300049</ele>
        <time>2011-06-26T09:32:08Z</time>
      </trkpt>
      <trkpt lat="45.3592" lon="5.50585">
        <ele>382.742065</ele>
        <time>2011-06-26T09:32:32Z</time>
      </trkpt>
      <trkpt lat="45.35912" lon="5.50574">
        <ele>383.222656</ele>
        <time>2011-06-26T09:32:41Z</time>
      </trkpt>
      <trkpt lat="45.35888" lon="5.5043">
        <ele>384.664795</ele>
        <time>2011-06-26T09:33:05Z</time>
      </trkpt>
      <trkpt lat="45.35892" lon="5.50411">
        <ele>383.703247</ele>
        <time>2011-06-26T09:33:10Z</time>
      </trkpt>
      <trkpt lat="45.35888" lon="5.50387">
        <ele>383.703247</ele>
        <time>2011-06-26T09:33:15Z</time>
      </trkpt>
      <trkpt lat="45.35907" lon="5.50342">
        <ele>383.703247</ele>
        <time>2011-06-26T09:33:29Z</time>
      </trkpt>
      <trkpt lat="45.35922" lon="5.50282">
        <ele>383.703247</ele>
        <time>2011-06-26T09:33:42Z</time>
      </trkpt>
      <trkpt lat="45.35959" lon="5.50226">
        <ele>380.338745</ele>
        <time>2011-06-26T09:34:06Z</time>
      </trkpt>
      <trkpt lat="45.36017" lon="5.50209">
        <ele>379.377441</ele>
        <time>2011-06-26T09:34:26Z</time>
      </trkpt>
      <trkpt lat="45.36137" lon="5.50203">
        <ele>381.300049</ele>
        <time>2011-06-26T09:34:57Z</time>
      </trkpt>
      <trkpt lat="45.36195" lon="5.5017">
        <ele>381.300049</ele>
        <time>2011-06-26T09:35:16Z</time>
      </trkpt>
      <trkpt lat="45.36208" lon="5.50132">
        <ele>381.300049</ele>
        <time>2011-06-26T09:35:32Z</time>
      </trkpt>
      <trkpt lat="45.36195" lon="5.50125">
        <ele>381.300049</ele>
        <time>2011-06-26T09:35:37Z</time>
      </trkpt>
      <trkpt lat="45.36186" lon="5.50113">
        <ele>381.300049</ele>
        <time>2011-06-26T09:35:42Z</time>
      </trkpt>
      <trkpt lat="45.36188" lon="5.50104">
        <ele>381.300049</ele>
        <time>2011-06-26T09:35:46Z</time>
      </trkpt>
      <trkpt lat="45.3612" lon="5.49995">
        <ele>381.300049</ele>
        <time>2011-06-26T09:36:02Z</time>
      </trkpt>
      <trkpt lat="45.36107" lon="5.49932">
        <ele>378.896851</ele>
        <time>2011-06-26T09:36:15Z</time>
      </trkpt>
      <trkpt lat="45.3609" lon="5.49889">
        <ele>373.609497</ele>
        <time>2011-06-26T09:36:40Z</time>
      </trkpt>
      <trkpt lat="45.36085" lon="5.49855">
        <ele>370.725586</ele>
        <time>2011-06-26T09:36:47Z</time>
      </trkpt>
      <trkpt lat="45.36092" lon="5.49836">
        <ele>369.283691</ele>
        <time>2011-06-26T09:36:51Z</time>
      </trkpt>
      <trkpt lat="45.36122" lon="5.49771">
        <ele>367.360962</ele>
        <time>2011-06-26T09:37:06Z</time>
      </trkpt>
      <trkpt lat="45.36148" lon="5.49698">
        <ele>367.360962</ele>
        <time>2011-06-26T09:37:27Z</time>
      </trkpt>
      <trkpt lat="45.36163" lon="5.4964">
        <ele>368.322266</ele>
        <time>2011-06-26T09:37:45Z</time>
      </trkpt>
      <trkpt lat="45.36193" lon="5.49604">
        <ele>375.532104</ele>
        <time>2011-06-26T09:38:04Z</time>
      </trkpt>
      <trkpt lat="45.36233" lon="5.49537">
        <ele>375.051514</ele>
        <time>2011-06-26T09:38:25Z</time>
      </trkpt>
      <trkpt lat="45.36244" lon="5.49525">
        <ele>375.051514</ele>
        <time>2011-06-26T09:38:28Z</time>
      </trkpt>
      <trkpt lat="45.36257" lon="5.49518">
        <ele>375.051514</ele>
        <time>2011-06-26T09:38:30Z</time>
      </trkpt>
      <trkpt lat="45.36313" lon="5.49531">
        <ele>374.090088</ele>
        <time>2011-06-26T09:38:37Z</time>
      </trkpt>
      <trkpt lat="45.3636" lon="5.49559">
        <ele>370.725586</ele>
        <time>2011-06-26T09:38:45Z</time>
      </trkpt>
      <trkpt lat="45.36407" lon="5.49602">
        <ele>368.322266</ele>
        <time>2011-06-26T09:38:58Z</time>
      </trkpt>
      <trkpt lat="45.36461" lon="5.49692">
        <ele>367.841553</ele>
        <time>2011-06-26T09:39:22Z</time>
      </trkpt>
      <trkpt lat="45.36521" lon="5.49767">
        <ele>369.283691</ele>
        <time>2011-06-26T09:39:44Z</time>
      </trkpt>
      <trkpt lat="45.3662" lon="5.49707">
        <ele>369.764282</ele>
        <time>2011-06-26T09:40:08Z</time>
      </trkpt>
      <trkpt lat="45.36706" lon="5.49677">
        <ele>369.764282</ele>
        <time>2011-06-26T09:40:30Z</time>
      </trkpt>
      <trkpt lat="45.36785" lon="5.49645">
        <ele>375.532104</ele>
        <time>2011-06-26T09:40:52Z</time>
      </trkpt>
      <trkpt lat="45.36854" lon="5.49608">
        <ele>376.49353</ele>
        <time>2011-06-26T09:41:10Z</time>
      </trkpt>
      <trkpt lat="45.36877" lon="5.4958">
        <ele>376.012817</ele>
        <time>2011-06-26T09:41:17Z</time>
      </trkpt>
      <trkpt lat="45.3689" lon="5.49552">
        <ele>376.012817</ele>
        <time>2011-06-26T09:41:31Z</time>
      </trkpt>
      <trkpt lat="45.36888" lon="5.49537">
        <ele>369.283691</ele>
        <time>2011-06-26T09:42:35Z</time>
      </trkpt>
      <trkpt lat="45.3689" lon="5.49537">
        <ele>369.283691</ele>
        <time>2011-06-26T09:49:22Z</time>
      </trkpt>
      <trkpt lat="45.36892" lon="5.49537">
        <ele>414.465454</ele>
        <time>2011-06-26T09:50:16Z</time>
      </trkpt>
      <trkpt lat="45.36888" lon="5.49542">
        <ele>400.526489</ele>
        <time>2011-06-26T09:52:11Z</time>
      </trkpt>
      <trkpt lat="45.36892" lon="5.4954">
        <ele>395.719849</ele>
        <time>2011-06-26T09:52:31Z</time>
      </trkpt>
      <trkpt lat="45.36897" lon="5.4954">
        <ele>393.797241</ele>
        <time>2011-06-26T09:52:33Z</time>
      </trkpt>
      <trkpt lat="45.3692" lon="5.49563">
        <ele>388.990601</ele>
        <time>2011-06-26T09:52:43Z</time>
      </trkpt>
      <trkpt lat="45.36907" lon="5.49608">
        <ele>383.703247</ele>
        <time>2011-06-26T09:52:53Z</time>
      </trkpt>
      <trkpt lat="45.36858" lon="5.49655">
        <ele>378.896851</ele>
        <time>2011-06-26T09:53:10Z</time>
      </trkpt>
      <trkpt lat="45.36819" lon="5.49724">
        <ele>378.896851</ele>
        <time>2011-06-26T09:53:34Z</time>
      </trkpt>
      <trkpt lat="45.36791" lon="5.49784">
        <ele>383.703247</ele>
        <time>2011-06-26T09:53:58Z</time>
      </trkpt>
      <trkpt lat="45.36763" lon="5.49855">
        <ele>387.067993</ele>
        <time>2011-06-26T09:54:25Z</time>
      </trkpt>
      <trkpt lat="45.36725" lon="5.49934">
        <ele>393.797241</ele>
        <time>2011-06-26T09:54:54Z</time>
      </trkpt>
      <trkpt lat="45.36712" lon="5.49967">
        <ele>396.681152</ele>
        <time>2011-06-26T09:55:06Z</time>
      </trkpt>
      <trkpt lat="45.36716" lon="5.49977">
        <ele>398.123169</ele>
        <time>2011-06-26T09:55:10Z</time>
      </trkpt>
      <trkpt lat="45.36718" lon="5.49984">
        <ele>398.60376</ele>
        <time>2011-06-26T09:55:13Z</time>
      </trkpt>
      <trkpt lat="45.36723" lon="5.49999">
        <ele>400.045898</ele>
        <time>2011-06-26T09:55:18Z</time>
      </trkpt>
      <trkpt lat="45.36761" lon="5.50065">
        <ele>401.487793</ele>
        <time>2011-06-26T09:55:41Z</time>
      </trkpt>
      <trkpt lat="45.36791" lon="5.50151">
        <ele>402.929688</ele>
        <time>2011-06-26T09:56:03Z</time>
      </trkpt>
      <trkpt lat="45.36794" lon="5.50254">
        <ele>403.4104</ele>
        <time>2011-06-26T09:56:23Z</time>
      </trkpt>
      <trkpt lat="45.36785" lon="5.50291">
        <ele>404.852295</ele>
        <time>2011-06-26T09:56:30Z</time>
      </trkpt>
      <trkpt lat="45.36809" lon="5.50291">
        <ele>405.813721</ele>
        <time>2011-06-26T09:56:38Z</time>
      </trkpt>
      <trkpt lat="45.36813" lon="5.50282">
        <ele>406.294312</ele>
        <time>2011-06-26T09:56:40Z</time>
      </trkpt>
      <trkpt lat="45.36821" lon="5.5019">
        <ele>408.217041</ele>
        <time>2011-06-26T09:56:59Z</time>
      </trkpt>
      <trkpt lat="45.36836" lon="5.50143">
        <ele>408.697632</ele>
        <time>2011-06-26T09:57:11Z</time>
      </trkpt>
      <trkpt lat="45.36903" lon="5.501">
        <ele>413.504272</ele>
        <time>2011-06-26T09:57:33Z</time>
      </trkpt>
      <trkpt lat="45.36972" lon="5.5005">
        <ele>419.752808</ele>
        <time>2011-06-26T09:57:59Z</time>
      </trkpt>
      <trkpt lat="45.37015" lon="5.50012">
        <ele>423.598022</ele>
        <time>2011-06-26T09:58:18Z</time>
      </trkpt>
      <trkpt lat="45.37055" lon="5.50007">
        <ele>427.443359</ele>
        <time>2011-06-26T09:58:36Z</time>
      </trkpt>
      <trkpt lat="45.37087" lon="5.50063">
        <ele>432.25</ele>
        <time>2011-06-26T09:58:59Z</time>
      </trkpt>
      <trkpt lat="45.3712" lon="5.50102">
        <ele>433.691895</ele>
        <time>2011-06-26T09:59:21Z</time>
      </trkpt>
      <trkpt lat="45.37152" lon="5.50149">
        <ele>436.575928</ele>
        <time>2011-06-26T09:59:42Z</time>
      </trkpt>
      <trkpt lat="45.37195" lon="5.50228">
        <ele>440.421265</ele>
        <time>2011-06-26T10:00:06Z</time>
      </trkpt>
      <trkpt lat="45.37242" lon="5.50273">
        <ele>443.305054</ele>
        <time>2011-06-26T10:00:25Z</time>
      </trkpt>
      <trkpt lat="45.37315" lon="5.50321">
        <ele>443.305054</ele>
        <time>2011-06-26T10:00:47Z</time>
      </trkpt>
      <trkpt lat="45.37379" lon="5.50385">
        <ele>446.189087</ele>
        <time>2011-06-26T10:01:08Z</time>
      </trkpt>
      <trkpt lat="45.37414" lon="5.50452">
        <ele>445.227661</ele>
        <time>2011-06-26T10:01:28Z</time>
      </trkpt>
      <trkpt lat="45.37437" lon="5.50552">
        <ele>443.785767</ele>
        <time>2011-06-26T10:01:49Z</time>
      </trkpt>
      <trkpt lat="45.37474" lon="5.50651">
        <ele>448.111816</ele>
        <time>2011-06-26T10:02:07Z</time>
      </trkpt>
      <trkpt lat="45.37525" lon="5.50733">
        <ele>451.476318</ele>
        <time>2011-06-26T10:02:27Z</time>
      </trkpt>
      <trkpt lat="45.37609" lon="5.50806">
        <ele>453.398926</ele>
        <time>2011-06-26T10:02:53Z</time>
      </trkpt>
      <trkpt lat="45.37658" lon="5.50827">
        <ele>456.282959</ele>
        <time>2011-06-26T10:03:17Z</time>
      </trkpt>
      <trkpt lat="45.37699" lon="5.50881">
        <ele>456.76355</ele>
        <time>2011-06-26T10:03:42Z</time>
      </trkpt>
      <trkpt lat="45.37736" lon="5.509">
        <ele>455.802246</ele>
        <time>2011-06-26T10:03:54Z</time>
      </trkpt>
      <trkpt lat="45.37804" lon="5.5096">
        <ele>459.16687</ele>
        <time>2011-06-26T10:04:06Z</time>
      </trkpt>
      <trkpt lat="45.37802" lon="5.51087">
        <ele>461.57019</ele>
        <time>2011-06-26T10:04:27Z</time>
      </trkpt>
      <trkpt lat="45.37804" lon="5.51117">
        <ele>461.57019</ele>
        <time>2011-06-26T10:04:32Z</time>
      </trkpt>
      <trkpt lat="45.37819" lon="5.51181">
        <ele>463.492798</ele>
        <time>2011-06-26T10:04:42Z</time>
      </trkpt>
      <trkpt lat="45.37875" lon="5.51267">
        <ele>464.454102</ele>
        <time>2011-06-26T10:04:57Z</time>
      </trkpt>
      <trkpt lat="45.37957" lon="5.51361">
        <ele>464.934814</ele>
        <time>2011-06-26T10:05:17Z</time>
      </trkpt>
      <trkpt lat="45.38034" lon="5.5143">
        <ele>464.934814</ele>
        <time>2011-06-26T10:05:33Z</time>
      </trkpt>
      <trkpt lat="45.38109" lon="5.51548">
        <ele>467.818726</ele>
        <time>2011-06-26T10:05:54Z</time>
      </trkpt>
      <trkpt lat="45.38188" lon="5.51668">
        <ele>468.780029</ele>
        <time>2011-06-26T10:06:16Z</time>
      </trkpt>
      <trkpt lat="45.38212" lon="5.51705">
        <ele>469.741333</ele>
        <time>2011-06-26T10:06:23Z</time>
      </trkpt>
      <trkpt lat="45.38212" lon="5.5173">
        <ele>470.221924</ele>
        <time>2011-06-26T10:06:28Z</time>
      </trkpt>
      <trkpt lat="45.38173" lon="5.51771">
        <ele>473.106079</ele>
        <time>2011-06-26T10:06:43Z</time>
      </trkpt>
      <trkpt lat="45.38115" lon="5.51793">
        <ele>479.835083</ele>
        <time>2011-06-26T10:07:03Z</time>
      </trkpt>
      <trkpt lat="45.38109" lon="5.51793">
        <ele>480.315918</ele>
        <time>2011-06-26T10:07:05Z</time>
      </trkpt>
      <trkpt lat="45.38107" lon="5.51806">
        <ele>480.315918</ele>
        <time>2011-06-26T10:07:09Z</time>
      </trkpt>
      <trkpt lat="45.38124" lon="5.51846">
        <ele>482.238525</ele>
        <time>2011-06-26T10:07:24Z</time>
      </trkpt>
      <trkpt lat="45.38135" lon="5.51949">
        <ele>483.199829</ele>
        <time>2011-06-26T10:07:59Z</time>
      </trkpt>
      <trkpt lat="45.38147" lon="5.52037">
        <ele>482.719238</ele>
        <time>2011-06-26T10:08:17Z</time>
      </trkpt>
      <trkpt lat="45.38158" lon="5.52069">
        <ele>482.238525</ele>
        <time>2011-06-26T10:08:22Z</time>
      </trkpt>
      <trkpt lat="45.38188" lon="5.52125">
        <ele>482.719238</ele>
        <time>2011-06-26T10:08:30Z</time>
      </trkpt>
      <trkpt lat="45.38238" lon="5.52228">
        <ele>485.603027</ele>
        <time>2011-06-26T10:08:46Z</time>
      </trkpt>
      <trkpt lat="45.38285" lon="5.52333">
        <ele>488.487183</ele>
        <time>2011-06-26T10:09:07Z</time>
      </trkpt>
      <trkpt lat="45.38343" lon="5.5243">
        <ele>490.40979</ele>
        <time>2011-06-26T10:09:29Z</time>
      </trkpt>
      <trkpt lat="45.38411" lon="5.52529">
        <ele>490.40979</ele>
        <time>2011-06-26T10:09:48Z</time>
      </trkpt>
      <trkpt lat="45.38452" lon="5.52584">
        <ele>490.890381</ele>
        <time>2011-06-26T10:09:59Z</time>
      </trkpt>
      <trkpt lat="45.38439" lon="5.52619">
        <ele>488.00647</ele>
        <time>2011-06-26T10:10:10Z</time>
      </trkpt>
      <trkpt lat="45.38437" lon="5.52623">
        <ele>487.525635</ele>
        <time>2011-06-26T10:10:11Z</time>
      </trkpt>
      <trkpt lat="45.38409" lon="5.5264">
        <ele>486.08374</ele>
        <time>2011-06-26T10:10:16Z</time>
      </trkpt>
      <trkpt lat="45.38366" lon="5.52668">
        <ele>478.393188</ele>
        <time>2011-06-26T10:10:23Z</time>
      </trkpt>
      <trkpt lat="45.38362" lon="5.52675">
        <ele>477.431885</ele>
        <time>2011-06-26T10:10:24Z</time>
      </trkpt>
      <trkpt lat="45.38302" lon="5.52733">
        <ele>468.780029</ele>
        <time>2011-06-26T10:10:33Z</time>
      </trkpt>
      <trkpt lat="45.38248" lon="5.52784">
        <ele>460.608765</ele>
        <time>2011-06-26T10:10:40Z</time>
      </trkpt>
      <trkpt lat="45.38227" lon="5.52795">
        <ele>458.205566</ele>
        <time>2011-06-26T10:10:44Z</time>
      </trkpt>
      <trkpt lat="45.3821" lon="5.5278">
        <ele>457.724976</ele>
        <time>2011-06-26T10:10:48Z</time>
      </trkpt>
      <trkpt lat="45.38165" lon="5.52765">
        <ele>455.802246</ele>
        <time>2011-06-26T10:10:55Z</time>
      </trkpt>
      <trkpt lat="45.38115" lon="5.52743">
        <ele>454.360229</ele>
        <time>2011-06-26T10:11:02Z</time>
      </trkpt>
      <trkpt lat="45.38036" lon="5.52758">
        <ele>450.995605</ele>
        <time>2011-06-26T10:11:14Z</time>
      </trkpt>
      <trkpt lat="45.38032" lon="5.52758">
        <ele>450.515015</ele>
        <time>2011-06-26T10:11:15Z</time>
      </trkpt>
      <trkpt lat="45.38017" lon="5.52724">
        <ele>448.111816</ele>
        <time>2011-06-26T10:11:22Z</time>
      </trkpt>
      <trkpt lat="45.38012" lon="5.52724">
        <ele>447.630981</ele>
        <time>2011-06-26T10:11:23Z</time>
      </trkpt>
      <trkpt lat="45.37944" lon="5.52765">
        <ele>441.863159</ele>
        <time>2011-06-26T10:11:35Z</time>
      </trkpt>
      <trkpt lat="45.37926" lon="5.52758">
        <ele>440.901855</ele>
        <time>2011-06-26T10:11:39Z</time>
      </trkpt>
      <trkpt lat="45.3792" lon="5.5275">
        <ele>440.901855</ele>
        <time>2011-06-26T10:11:41Z</time>
      </trkpt>
      <trkpt lat="45.37911" lon="5.52741">
        <ele>440.421265</ele>
        <time>2011-06-26T10:11:43Z</time>
      </trkpt>
      <trkpt lat="45.37896" lon="5.52737">
        <ele>439.94043</ele>
        <time>2011-06-26T10:11:46Z</time>
      </trkpt>
      <trkpt lat="45.378" lon="5.5276">
        <ele>436.575928</ele>
        <time>2011-06-26T10:12:01Z</time>
      </trkpt>
      <trkpt lat="45.37723" lon="5.5275">
        <ele>432.25</ele>
        <time>2011-06-26T10:12:12Z</time>
      </trkpt>
      <trkpt lat="45.3765" lon="5.52771">
        <ele>429.846558</ele>
        <time>2011-06-26T10:12:23Z</time>
      </trkpt>
      <trkpt lat="45.37602" lon="5.52808">
        <ele>428.404663</ele>
        <time>2011-06-26T10:12:31Z</time>
      </trkpt>
      <trkpt lat="45.3751" lon="5.52872">
        <ele>429.846558</ele>
        <time>2011-06-26T10:12:48Z</time>
      </trkpt>
      <trkpt lat="45.37446" lon="5.52911">
        <ele>429.365967</ele>
        <time>2011-06-26T10:13:03Z</time>
      </trkpt>
      <trkpt lat="45.37433" lon="5.52921">
        <ele>429.365967</ele>
        <time>2011-06-26T10:13:06Z</time>
      </trkpt>
      <trkpt lat="45.37369" lon="5.52992">
        <ele>428.885376</ele>
        <time>2011-06-26T10:13:21Z</time>
      </trkpt>
      <trkpt lat="45.37369" lon="5.53022">
        <ele>428.885376</ele>
        <time>2011-06-26T10:13:26Z</time>
      </trkpt>
      <trkpt lat="45.37446" lon="5.53145">
        <ele>426.001343</ele>
        <time>2011-06-26T10:13:46Z</time>
      </trkpt>
      <trkpt lat="45.37517" lon="5.53267">
        <ele>420.714111</ele>
        <time>2011-06-26T10:14:02Z</time>
      </trkpt>
      <trkpt lat="45.37575" lon="5.534">
        <ele>413.02356</ele>
        <time>2011-06-26T10:14:19Z</time>
      </trkpt>
      <trkpt lat="45.37581" lon="5.53417">
        <ele>413.02356</ele>
        <time>2011-06-26T10:14:21Z</time>
      </trkpt>
      <trkpt lat="45.3759" lon="5.53464">
        <ele>411.581665</ele>
        <time>2011-06-26T10:14:25Z</time>
      </trkpt>
      <trkpt lat="45.37592" lon="5.53556">
        <ele>410.139648</ele>
        <time>2011-06-26T10:14:33Z</time>
      </trkpt>
      <trkpt lat="45.37607" lon="5.53597">
        <ele>409.178345</ele>
        <time>2011-06-26T10:14:38Z</time>
      </trkpt>
      <trkpt lat="45.3765" lon="5.5367">
        <ele>406.774902</ele>
        <time>2011-06-26T10:14:52Z</time>
      </trkpt>
      <trkpt lat="45.37665" lon="5.53765">
        <ele>405.813721</ele>
        <time>2011-06-26T10:15:10Z</time>
      </trkpt>
      <trkpt lat="45.37639" lon="5.53756">
        <ele>406.774902</ele>
        <time>2011-06-26T10:15:20Z</time>
      </trkpt>
      <trkpt lat="45.37577" lon="5.53715">
        <ele>405.813721</ele>
        <time>2011-06-26T10:15:37Z</time>
      </trkpt>
      <trkpt lat="45.37525" lon="5.53702">
        <ele>405.333008</ele>
        <time>2011-06-26T10:15:46Z</time>
      </trkpt>
      <trkpt lat="45.37499" lon="5.53702">
        <ele>404.852295</ele>
        <time>2011-06-26T10:15:51Z</time>
      </trkpt>
      <trkpt lat="45.37444" lon="5.53722">
        <ele>400.526489</ele>
        <time>2011-06-26T10:16:00Z</time>
      </trkpt>
      <trkpt lat="45.37422" lon="5.5375">
        <ele>398.123169</ele>
        <time>2011-06-26T10:16:03Z</time>
      </trkpt>
      <trkpt lat="45.37416" lon="5.53808">
        <ele>395.239136</ele>
        <time>2011-06-26T10:16:10Z</time>
      </trkpt>
      <trkpt lat="45.3742" lon="5.53823">
        <ele>395.239136</ele>
        <time>2011-06-26T10:16:12Z</time>
      </trkpt>
      <trkpt lat="45.37429" lon="5.53853">
        <ele>395.719849</ele>
        <time>2011-06-26T10:16:16Z</time>
      </trkpt>
      <trkpt lat="45.37454" lon="5.53958">
        <ele>397.161743</ele>
        <time>2011-06-26T10:16:33Z</time>
      </trkpt>
      <trkpt lat="45.37454" lon="5.53966">
        <ele>398.123169</ele>
        <time>2011-06-26T10:16:42Z</time>
      </trkpt>
      <trkpt lat="45.37454" lon="5.53975">
        <ele>400.045898</ele>
        <time>2011-06-26T10:16:47Z</time>
      </trkpt>
      <trkpt lat="45.37457" lon="5.53979">
        <ele>400.045898</ele>
        <time>2011-06-26T10:16:52Z</time>
      </trkpt>
      <trkpt lat="45.37467" lon="5.54022">
        <ele>400.526489</ele>
        <time>2011-06-26T10:17:03Z</time>
      </trkpt>
      <trkpt lat="45.37493" lon="5.54127">
        <ele>401.487793</ele>
        <time>2011-06-26T10:17:24Z</time>
      </trkpt>
      <trkpt lat="45.37514" lon="5.54205">
        <ele>403.891113</ele>
        <time>2011-06-26T10:17:40Z</time>
      </trkpt>
      <trkpt lat="45.37525" lon="5.54267">
        <ele>406.294312</ele>
        <time>2011-06-26T10:17:54Z</time>
      </trkpt>
      <trkpt lat="45.37551" lon="5.54357">
        <ele>406.294312</ele>
        <time>2011-06-26T10:18:12Z</time>
      </trkpt>
      <trkpt lat="45.37568" lon="5.5446">
        <ele>408.217041</ele>
        <time>2011-06-26T10:18:31Z</time>
      </trkpt>
      <trkpt lat="45.3756" lon="5.54561">
        <ele>411.581665</ele>
        <time>2011-06-26T10:18:50Z</time>
      </trkpt>
      <trkpt lat="45.3754" lon="5.54666">
        <ele>415.907471</ele>
        <time>2011-06-26T10:19:12Z</time>
      </trkpt>
      <trkpt lat="45.3753" lon="5.54709">
        <ele>417.8302</ele>
        <time>2011-06-26T10:19:22Z</time>
      </trkpt>
      <trkpt lat="45.37525" lon="5.54715">
        <ele>418.310791</ele>
        <time>2011-06-26T10:19:26Z</time>
      </trkpt>
      <trkpt lat="45.37521" lon="5.54797">
        <ele>419.272217</ele>
        <time>2011-06-26T10:19:44Z</time>
      </trkpt>
      <trkpt lat="45.3754" lon="5.54848">
        <ele>422.156006</ele>
        <time>2011-06-26T10:19:59Z</time>
      </trkpt>
      <trkpt lat="45.37542" lon="5.5487">
        <ele>422.636719</ele>
        <time>2011-06-26T10:20:06Z</time>
      </trkpt>
      <trkpt lat="45.37527" lon="5.54898">
        <ele>421.194824</ele>
        <time>2011-06-26T10:20:11Z</time>
      </trkpt>
      <trkpt lat="45.37474" lon="5.54915">
        <ele>415.907471</ele>
        <time>2011-06-26T10:20:18Z</time>
      </trkpt>
      <trkpt lat="45.37324" lon="5.54891">
        <ele>406.774902</ele>
        <time>2011-06-26T10:20:33Z</time>
      </trkpt>
      <trkpt lat="45.37244" lon="5.54889">
        <ele>404.852295</ele>
        <time>2011-06-26T10:20:43Z</time>
      </trkpt>
      <trkpt lat="45.37218" lon="5.54889">
        <ele>404.371704</ele>
        <time>2011-06-26T10:20:47Z</time>
      </trkpt>
      <trkpt lat="45.37199" lon="5.54898">
        <ele>404.371704</ele>
        <time>2011-06-26T10:20:51Z</time>
      </trkpt>
      <trkpt lat="45.37173" lon="5.54932">
        <ele>402.929688</ele>
        <time>2011-06-26T10:20:58Z</time>
      </trkpt>
      <trkpt lat="45.37167" lon="5.54917">
        <ele>401.968506</ele>
        <time>2011-06-26T10:21:05Z</time>
      </trkpt>
      <trkpt lat="45.37171" lon="5.54943">
        <ele>401.487793</ele>
        <time>2011-06-26T10:21:12Z</time>
      </trkpt>
      <trkpt lat="45.37158" lon="5.54964">
        <ele>400.045898</ele>
        <time>2011-06-26T10:21:16Z</time>
      </trkpt>
      <trkpt lat="45.37085" lon="5.55018">
        <ele>396.681152</ele>
        <time>2011-06-26T10:21:27Z</time>
      </trkpt>
      <trkpt lat="45.37034" lon="5.55059">
        <ele>395.239136</ele>
        <time>2011-06-26T10:21:34Z</time>
      </trkpt>
      <trkpt lat="45.37021" lon="5.55074">
        <ele>395.239136</ele>
        <time>2011-06-26T10:21:36Z</time>
      </trkpt>
      <trkpt lat="45.36997" lon="5.55069">
        <ele>393.797241</ele>
        <time>2011-06-26T10:21:41Z</time>
      </trkpt>
      <trkpt lat="45.36997" lon="5.55061">
        <ele>393.316528</ele>
        <time>2011-06-26T10:21:42Z</time>
      </trkpt>
      <trkpt lat="45.36995" lon="5.54908">
        <ele>388.990601</ele>
        <time>2011-06-26T10:21:59Z</time>
      </trkpt>
      <trkpt lat="45.37" lon="5.54838">
        <ele>387.548584</ele>
        <time>2011-06-26T10:22:07Z</time>
      </trkpt>
      <trkpt lat="45.37" lon="5.5482">
        <ele>387.548584</ele>
        <time>2011-06-26T10:22:09Z</time>
      </trkpt>
      <trkpt lat="45.36987" lon="5.54792">
        <ele>387.548584</ele>
        <time>2011-06-26T10:22:13Z</time>
      </trkpt>
      <trkpt lat="45.36972" lon="5.54769">
        <ele>387.067993</ele>
        <time>2011-06-26T10:22:17Z</time>
      </trkpt>
      <trkpt lat="45.36939" lon="5.54737">
        <ele>384.664795</ele>
        <time>2011-06-26T10:22:23Z</time>
      </trkpt>
      <trkpt lat="45.3689" lon="5.54679">
        <ele>381.300049</ele>
        <time>2011-06-26T10:22:30Z</time>
      </trkpt>
      <trkpt lat="45.36875" lon="5.54668">
        <ele>380.819458</ele>
        <time>2011-06-26T10:22:32Z</time>
      </trkpt>
      <trkpt lat="45.36821" lon="5.54657">
        <ele>376.49353</ele>
        <time>2011-06-26T10:22:38Z</time>
      </trkpt>
      <trkpt lat="45.3677" lon="5.54619">
        <ele>371.206299</ele>
        <time>2011-06-26T10:22:45Z</time>
      </trkpt>
      <trkpt lat="45.36716" lon="5.54621">
        <ele>365.438354</ele>
        <time>2011-06-26T10:22:50Z</time>
      </trkpt>
      <trkpt lat="45.36684" lon="5.54642">
        <ele>363.515747</ele>
        <time>2011-06-26T10:22:54Z</time>
      </trkpt>
      <trkpt lat="45.36676" lon="5.54672">
        <ele>363.035034</ele>
        <time>2011-06-26T10:22:57Z</time>
      </trkpt>
      <trkpt lat="45.36633" lon="5.54735">
        <ele>363.035034</ele>
        <time>2011-06-26T10:23:06Z</time>
      </trkpt>
      <trkpt lat="45.36562" lon="5.54831">
        <ele>364.476929</ele>
        <time>2011-06-26T10:23:24Z</time>
      </trkpt>
      <trkpt lat="45.36553" lon="5.5485">
        <ele>364.476929</ele>
        <time>2011-06-26T10:23:27Z</time>
      </trkpt>
      <trkpt lat="45.36523" lon="5.5488">
        <ele>364.957642</ele>
        <time>2011-06-26T10:23:34Z</time>
      </trkpt>
      <trkpt lat="45.36437" lon="5.54898">
        <ele>363.035034</ele>
        <time>2011-06-26T10:23:48Z</time>
      </trkpt>
      <trkpt lat="45.36328" lon="5.54891">
        <ele>362.07373</ele>
        <time>2011-06-26T10:24:07Z</time>
      </trkpt>
      <trkpt lat="45.36201" lon="5.54915">
        <ele>361.59314</ele>
        <time>2011-06-26T10:24:30Z</time>
      </trkpt>
      <trkpt lat="45.36195" lon="5.54917">
        <ele>361.59314</ele>
        <time>2011-06-26T10:24:31Z</time>
      </trkpt>
      <trkpt lat="45.361" lon="5.54994">
        <ele>363.515747</ele>
        <time>2011-06-26T10:24:52Z</time>
      </trkpt>
      <trkpt lat="45.36109" lon="5.55011">
        <ele>363.515747</ele>
        <time>2011-06-26T10:24:56Z</time>
      </trkpt>
      <trkpt lat="45.36165" lon="5.55054">
        <ele>363.515747</ele>
        <time>2011-06-26T10:25:02Z</time>
      </trkpt>
      <trkpt lat="45.36156" lon="5.55071">
        <ele>363.515747</ele>
        <time>2011-06-26T10:25:06Z</time>
      </trkpt>
      <trkpt lat="45.36128" lon="5.55093">
        <ele>363.996338</ele>
        <time>2011-06-26T10:25:14Z</time>
      </trkpt>
      <trkpt lat="45.3613" lon="5.55119">
        <ele>364.476929</ele>
        <time>2011-06-26T10:25:22Z</time>
      </trkpt>
      <trkpt lat="45.36128" lon="5.55121">
        <ele>364.476929</ele>
        <time>2011-06-26T10:25:23Z</time>
      </trkpt>
      <trkpt lat="45.36124" lon="5.55121">
        <ele>363.996338</ele>
        <time>2011-06-26T10:25:33Z</time>
      </trkpt>
      <trkpt lat="45.36122" lon="5.55116">
        <ele>375.051514</ele>
        <time>2011-06-26T10:27:33Z</time>
      </trkpt>
      <trkpt lat="45.36124" lon="5.55116">
        <ele>368.322266</ele>
        <time>2011-06-26T10:36:39Z</time>
      </trkpt>
    </trkseg>
  </trk>
</gpx>